Wetterdaten: Samstag, 21.05.2022
Datum Zeit Temp. Aussen Temp. o. S. Temp +5cm Feuchte Auss Luftdruck Regen Sonnenschein Regendauer Solar Windben Empfang
21.05.2022 00:00 13,3 C 12,8 C 10,0 C 86 % 1020,3 hPa 0,0 l/m 0 min 0 min 0 W/m 12,9 km/h (3 Bft) 100,00 %
21.05.2022 00:02 13,3 C 12,8 C 10,0 C 86 % 1020,4 hPa 0,0 l/m 0 min 0 min 0 W/m 3,2 km/h (1 Bft) 9,52 %
21.05.2022 00:04 13,2 C 12,8 C 10,0 C 86 % 1020,4 hPa 0,0 l/m 0 min 0 min 0 W/m 9,7 km/h (2 Bft) 94,59 %
21.05.2022 00:06 13,2 C 12,8 C 10,0 C 86 % 1020,5 hPa 0,0 l/m 0 min 0 min 0 W/m 12,9 km/h (3 Bft) 94,59 %
21.05.2022 00:08 13,2 C 12,2 C 9,4 C 86 % 1020,5 hPa 0,0 l/m 0 min 0 min 0 W/m 12,9 km/h (3 Bft) 97,87 %
21.05.2022 00:10 13,2 C 12,2 C 9,4 C 86 % 1020,5 hPa 0,0 l/m 0 min 0 min 0 W/m 16,1 km/h (3 Bft) 97,87 %
21.05.2022 00:12 13,2 C 12,8 C 10,0 C 86 % 1020,6 hPa 0,0 l/m 0 min 0 min 0 W/m 12,9 km/h (3 Bft) 93,48 %
21.05.2022 00:14 13,2 C 12,2 C 9,4 C 86 % 1020,5 hPa 0,0 l/m 0 min 0 min 0 W/m 12,9 km/h (3 Bft) 97,87 %
21.05.2022 00:16 13,1 C 12,2 C 9,4 C 86 % 1020,6 hPa 0,0 l/m 0 min 0 min 0 W/m 12,9 km/h (3 Bft) 97,87 %
21.05.2022 00:18 13,1 C 12,2 C 10,0 C 87 % 1020,6 hPa 0,0 l/m 0 min 0 min 0 W/m 16,1 km/h (3 Bft) 93,62 %
21.05.2022 00:20 13,1 C 12,2 C 9,4 C 87 % 1020,6 hPa 0,0 l/m 0 min 0 min 0 W/m 12,9 km/h (3 Bft) 95,74 %
21.05.2022 00:22 13,1 C 12,2 C 9,4 C 87 % 1020,6 hPa 0,0 l/m 0 min 0 min 0 W/m 6,4 km/h (2 Bft) 95,74 %
21.05.2022 00:24 13,1 C 12,2 C 9,4 C 87 % 1020,6 hPa 0,0 l/m 0 min 0 min 0 W/m 9,7 km/h (2 Bft) 95,65 %
21.05.2022 00:26 13,0 C 12,2 C 9,4 C 87 % 1020,6 hPa 0,0 l/m 0 min 0 min 0 W/m 12,9 km/h (3 Bft) 95,74 %
21.05.2022 00:28 13,0 C 12,2 C 9,4 C 87 % 1020,6 hPa 0,0 l/m 0 min 0 min 0 W/m 6,4 km/h (2 Bft) 95,74 %
21.05.2022 00:30 13,0 C 12,2 C 9,4 C 87 % 1020,5 hPa 0,0 l/m 0 min 0 min 0 W/m 12,9 km/h (3 Bft) 95,74 %
21.05.2022 00:32 12,9 C 12,2 C 9,4 C 87 % 1020,5 hPa 0,0 l/m 0 min 0 min 0 W/m 6,4 km/h (2 Bft) 95,74 %
21.05.2022 00:34 12,9 C 12,2 C 9,4 C 87 % 1020,6 hPa 0,0 l/m 0 min 0 min 0 W/m 3,2 km/h (1 Bft) 95,74 %
21.05.2022 00:36 12,9 C 12,2 C 9,4 C 87 % 1020,5 hPa 0,0 l/m 0 min 0 min 0 W/m 12,9 km/h (3 Bft) 97,83 %
21.05.2022 00:38 12,9 C 12,2 C 9,4 C 87 % 1020,4 hPa 0,0 l/m 0 min 0 min 0 W/m 9,7 km/h (2 Bft) 95,74 %
21.05.2022 00:40 12,9 C 12,2 C 9,4 C 88 % 1020,5 hPa 0,0 l/m 0 min 0 min 0 W/m 9,7 km/h (2 Bft) 93,62 %
21.05.2022 00:42 12,9 C 12,2 C 9,4 C 88 % 1020,4 hPa 0,0 l/m 0 min 0 min 0 W/m 6,4 km/h (2 Bft) 95,74 %
21.05.2022 00:44 12,9 C 12,2 C 9,4 C 88 % 1020,4 hPa 0,0 l/m 0 min 0 min 0 W/m 6,4 km/h (2 Bft) 95,74 %
21.05.2022 00:46 12,9 C 12,2 C 9,4 C 88 % 1020,5 hPa 0,0 l/m 0 min 0 min 0 W/m 6,4 km/h (2 Bft) 93,48 %
21.05.2022 00:48 12,8 C 12,2 C 9,4 C 88 % 1020,4 hPa 0,0 l/m 0 min 0 min 0 W/m 6,4 km/h (2 Bft) 93,62 %
21.05.2022 00:50 12,8 C 12,2 C 9,4 C 88 % 1020,5 hPa 0,0 l/m 0 min 0 min 0 W/m 3,2 km/h (1 Bft) 97,87 %
21.05.2022 00:52 12,8 C 12,2 C 9,4 C 88 % 1020,5 hPa 0,0 l/m 0 min 0 min 0 W/m 3,2 km/h (1 Bft) 100,00 %
21.05.2022 00:54 12,8 C 12,2 C 9,4 C 88 % 1020,5 hPa 0,0 l/m 0 min 0 min 0 W/m 12,9 km/h (3 Bft) 100,00 %
21.05.2022 00:56 12,7 C 11,7 C 9,4 C 88 % 1020,5 hPa 0,0 l/m 0 min 0 min 0 W/m 6,4 km/h (2 Bft) 100,00 %
21.05.2022 00:58 12,7 C 11,7 C 9,4 C 88 % 1020,5 hPa 0,0 l/m 0 min 0 min 0 W/m 3,2 km/h (1 Bft) 100,00 %
21.05.2022 01:00 12,7 C 11,7 C 9,4 C 88 % 1020,5 hPa 0,0 l/m 0 min 0 min 0 W/m 6,4 km/h (2 Bft) 100,00 %
21.05.2022 01:02 12,7 C 11,7 C 9,4 C 88 % 1020,5 hPa 0,0 l/m 0 min 0 min 0 W/m 3,2 km/h (1 Bft) 100,00 %
21.05.2022 01:04 12,7 C 11,7 C 9,4 C 88 % 1020,5 hPa 0,0 l/m 0 min 0 min 0 W/m 3,2 km/h (1 Bft) 100,00 %
21.05.2022 01:06 12,6 C 11,7 C 8,9 C 89 % 1020,5 hPa 0,0 l/m 0 min 0 min 0 W/m 6,4 km/h (2 Bft) 97,87 %
21.05.2022 01:08 12,6 C 11,7 C 8,9 C 89 % 1020,6 hPa 0,0 l/m 0 min 0 min 0 W/m 3,2 km/h (1 Bft) 100,00 %
21.05.2022 01:10 12,6 C 11,7 C 8,9 C 89 % 1020,6 hPa 0,0 l/m 0 min 0 min 0 W/m 3,2 km/h (1 Bft) 100,00 %
21.05.2022 01:12 12,6 C 11,7 C 8,9 C 89 % 1020,6 hPa 0,0 l/m 0 min 0 min 0 W/m 6,4 km/h (2 Bft) 100,00 %
21.05.2022 01:14 12,6 C 11,7 C 8,9 C 89 % 1020,5 hPa 0,0 l/m 0 min 0 min 0 W/m 9,7 km/h (2 Bft) 100,00 %
21.05.2022 01:16 12,5 C 11,7 C 8,9 C 89 % 1020,6 hPa 0,0 l/m 0 min 0 min 0 W/m 3,2 km/h (1 Bft) 100,00 %
21.05.2022 01:18 12,4 C 11,7 C 8,9 C 89 % 1020,6 hPa 0,0 l/m 0 min 0 min 0 W/m 12,9 km/h (3 Bft) 100,00 %
21.05.2022 01:20 12,4 C 11,7 C 8,9 C 89 % 1020,6 hPa 0,0 l/m 0 min 0 min 0 W/m 6,4 km/h (2 Bft) 100,00 %
21.05.2022 01:22 12,4 C 11,7 C 8,9 C 89 % 1020,6 hPa 0,0 l/m 0 min 0 min 0 W/m 3,2 km/h (1 Bft) 100,00 %
21.05.2022 01:24 12,4 C 11,7 C 8,9 C 89 % 1020,6 hPa 0,0 l/m 0 min 0 min 0 W/m 3,2 km/h (1 Bft) 100,00 %
21.05.2022 01:26 12,4 C 11,7 C 8,9 C 89 % 1020,6 hPa 0,0 l/m 0 min 0 min 0 W/m 3,2 km/h (1 Bft) 100,00 %
21.05.2022 01:28 12,4 C 11,7 C 8,9 C 89 % 1020,5 hPa 0,0 l/m 0 min 0 min 0 W/m 3,2 km/h (1 Bft) 100,00 %
21.05.2022 01:30 12,3 C 11,7 C 8,9 C 90 % 1020,5 hPa 0,0 l/m 0 min 0 min 0 W/m 3,2 km/h (1 Bft) 100,00 %
21.05.2022 01:32 12,3 C 11,7 C 8,9 C 90 % 1020,5 hPa 0,0 l/m 0 min 0 min 0 W/m 3,2 km/h (1 Bft) 100,00 %
21.05.2022 01:34 12,3 C 11,7 C 8,9 C 90 % 1020,5 hPa 0,0 l/m 0 min 0 min 0 W/m 3,2 km/h (1 Bft) 100,00 %
21.05.2022 01:36 12,2 C 11,7 C 8,9 C 90 % 1020,5 hPa 0,0 l/m 0 min 0 min 0 W/m 3,2 km/h (1 Bft) 100,00 %
21.05.2022 01:38 12,2 C 11,7 C 8,9 C 90 % 1020,5 hPa 0,0 l/m 0 min 0 min 0 W/m 3,2 km/h (1 Bft) 100,00 %
21.05.2022 01:40 12,2 C 11,1 C 8,9 C 90 % 1020,5 hPa 0,0 l/m 0 min 0 min 0 W/m 3,2 km/h (1 Bft) 100,00 %
21.05.2022 01:42 12,2 C 11,7 C 8,9 C 90 % 1020,5 hPa 0,0 l/m 0 min 0 min 0 W/m 6,4 km/h (2 Bft) 100,00 %
21.05.2022 01:44 12,2 C 11,7 C 8,9 C 90 % 1020,6 hPa 0,0 l/m 0 min 0 min 0 W/m 6,4 km/h (2 Bft) 100,00 %
21.05.2022 01:46 12,2 C 11,1 C 8,9 C 90 % 1020,6 hPa 0,0 l/m 0 min 0 min 0 W/m 3,2 km/h (1 Bft) 100,00 %
21.05.2022 01:48 12,1 C 11,1 C 8,9 C 90 % 1020,6 hPa 0,0 l/m 0 min 0 min 0 W/m 3,2 km/h (1 Bft) 100,00 %
21.05.2022 01:50 12,1 C 11,1 C 8,9 C 90 % 1020,6 hPa 0,0 l/m 0 min 0 min 0 W/m 3,2 km/h (1 Bft) 100,00 %
21.05.2022 01:52 12,1 C 11,1 C 8,9 C 90 % 1020,6 hPa 0,0 l/m 0 min 0 min 0 W/m 3,2 km/h (1 Bft) 100,00 %
21.05.2022 01:54 12,1 C 11,1 C 8,9 C 90 % 1020,6 hPa 0,0 l/m 0 min 0 min 0 W/m 3,2 km/h (1 Bft) 100,00 %
21.05.2022 01:56 12,1 C 11,1 C 8,3 C 90 % 1020,6 hPa 0,0 l/m 0 min 0 min 0 W/m 9,7 km/h (2 Bft) 97,87 %
21.05.2022 01:58 12,1 C 11,1 C 8,9 C 90 % 1020,6 hPa 0,0 l/m 0 min 0 min 0 W/m 6,4 km/h (2 Bft) 100,00 %
21.05.2022 02:00 12,1 C 11,7 C 8,9 C 90 % 1020,5 hPa 0,0 l/m 0 min 0 min 0 W/m 9,7 km/h (2 Bft) 97,87 %
21.05.2022 02:02 12,1 C 11,7 C 8,9 C 90 % 1020,6 hPa 0,0 l/m 0 min 0 min 0 W/m 12,9 km/h (3 Bft) 97,87 %
21.05.2022 02:04 12,1 C 11,7 C 8,9 C 90 % 1020,5 hPa 0,0 l/m 0 min 0 min 0 W/m 6,4 km/h (2 Bft) 97,87 %
21.05.2022 02:06 12,1 C 11,7 C 8,9 C 90 % 1020,6 hPa 0,0 l/m 0 min 0 min 0 W/m 6,4 km/h (2 Bft) 93,62 %
21.05.2022 02:08 12,1 C 11,1 C 8,9 C 90 % 1020,5 hPa 0,0 l/m 0 min 0 min 0 W/m 6,4 km/h (2 Bft) 97,87 %
21.05.2022 02:10 12,1 C 11,1 C 8,9 C 90 % 1020,6 hPa 0,0 l/m 0 min 0 min 0 W/m 9,7 km/h (2 Bft) 97,83 %
21.05.2022 02:12 12,0 C 11,1 C 8,9 C 90 % 1020,6 hPa 0,0 l/m 0 min 0 min 0 W/m 6,4 km/h (2 Bft) 97,87 %
21.05.2022 02:14 12,0 C 11,1 C 8,9 C 90 % 1020,6 hPa 0,0 l/m 0 min 0 min 0 W/m 6,4 km/h (2 Bft) 93,62 %
21.05.2022 02:16 12,0 C 11,1 C 8,9 C 90 % 1020,6 hPa 0,0 l/m 0 min 0 min 0 W/m 6,4 km/h (2 Bft) 97,87 %
21.05.2022 02:18 12,0 C 11,1 C 8,9 C 90 % 1020,5 hPa 0,0 l/m 0 min 0 min 0 W/m 6,4 km/h (2 Bft) 91,49 %
21.05.2022 02:20 12,0 C 11,1 C 8,9 C 90 % 1020,5 hPa 0,0 l/m 0 min 0 min 0 W/m 6,4 km/h (2 Bft) 95,74 %
21.05.2022 02:22 12,0 C 11,1 C 8,9 C 90 % 1020,6 hPa 0,0 l/m 0 min 0 min 0 W/m 6,4 km/h (2 Bft) 93,48 %
21.05.2022 02:24 12,0 C 11,1 C 8,9 C 90 % 1020,5 hPa 0,0 l/m 0 min 0 min 0 W/m 6,4 km/h (2 Bft) 91,49 %
21.05.2022 02:26 12,0 C 11,1 C 8,9 C 90 % 1020,5 hPa 0,0 l/m 0 min 0 min 0 W/m 9,7 km/h (2 Bft) 95,74 %
21.05.2022 02:28 12,0 C 11,7 C 8,9 C 90 % 1020,4 hPa 0,0 l/m 0 min 0 min 0 W/m 6,4 km/h (2 Bft) 95,74 %
21.05.2022 02:30 12,0 C 11,1 C 8,9 C 90 % 1020,4 hPa 0,0 l/m 0 min 0 min 0 W/m 9,7 km/h (2 Bft) 93,62 %
21.05.2022 02:32 12,0 C 11,1 C 8,9 C 90 % 1020,4 hPa 0,0 l/m 0 min 0 min 0 W/m 12,9 km/h (3 Bft) 95,74 %
21.05.2022 02:34 11,9 C 11,1 C 8,3 C 90 % 1020,4 hPa 0,0 l/m 0 min 0 min 0 W/m 6,4 km/h (2 Bft) 95,65 %
21.05.2022 02:36 12,0 C 11,1 C 8,9 C 90 % 1020,5 hPa 0,0 l/m 0 min 0 min 0 W/m 12,9 km/h (3 Bft) 97,87 %
21.05.2022 02:38 12,0 C 11,1 C 8,9 C 90 % 1020,5 hPa 0,0 l/m 0 min 0 min 0 W/m 6,4 km/h (2 Bft) 97,87 %
21.05.2022 02:40 12,0 C 11,1 C 8,9 C 90 % 1020,5 hPa 0,0 l/m 0 min 0 min 0 W/m 6,4 km/h (2 Bft) 95,74 %
21.05.2022 02:44 12,0 C 11,1 C 8,9 C 90 % 1020,5 hPa 0,0 l/m 0 min 0 min 0 W/m 16,1 km/h (3 Bft) 100,00 %
21.05.2022 02:49 11,9 C 11,1 C 8,9 C 90 % 1020,5 hPa 0,0 l/m 0 min 0 min 0 W/m 12,9 km/h (3 Bft) 87,50 %
21.05.2022 02:50 12,0 C 11,1 C 8,9 C 90 % 1020,5 hPa 0,0 l/m 0 min 0 min 0 W/m 6,4 km/h (2 Bft) 100,00 %
21.05.2022 02:52 12,0 C 11,1 C 8,3 C 91 % 1020,5 hPa 0,0 l/m 0 min 0 min 0 W/m 6,4 km/h (2 Bft) 95,74 %
21.05.2022 02:54 11,9 C 11,1 C 8,9 C 90 % 1020,6 hPa 0,0 l/m 0 min 0 min 0 W/m 16,1 km/h (3 Bft) 95,74 %
21.05.2022 02:56 11,9 C 11,1 C 8,9 C 90 % 1020,5 hPa 0,0 l/m 0 min 0 min 0 W/m 16,1 km/h (3 Bft) 93,62 %
21.05.2022 02:58 11,9 C 11,1 C 8,9 C 90 % 1020,5 hPa 0,0 l/m 0 min 0 min 0 W/m 12,9 km/h (3 Bft) 93,62 %
21.05.2022 03:00 11,9 C 11,1 C 8,9 C 90 % 1020,5 hPa 0,0 l/m 0 min 0 min 0 W/m 9,7 km/h (2 Bft) 95,65 %
21.05.2022 03:02 11,9 C 11,1 C 8,3 C 90 % 1020,4 hPa 0,0 l/m 0 min 0 min 0 W/m 9,7 km/h (2 Bft) 95,74 %
21.05.2022 03:04 11,9 C 11,1 C 8,9 C 90 % 1020,5 hPa 0,0 l/m 0 min 0 min 0 W/m 12,9 km/h (3 Bft) 95,74 %
21.05.2022 03:06 11,9 C 11,7 C 8,9 C 90 % 1020,5 hPa 0,0 l/m 0 min 0 min 0 W/m 12,9 km/h (3 Bft) 94,92 %
21.05.2022 03:08 11,9 C 11,1 C 8,9 C 90 % 1020,4 hPa 0,0 l/m 0 min 0 min 0 W/m 12,9 km/h (3 Bft) 97,14 %
21.05.2022 03:10 11,9 C 11,1 C 8,9 C 90 % 1020,5 hPa 0,0 l/m 0 min 0 min 0 W/m 16,1 km/h (3 Bft) 95,74 %
21.05.2022 03:12 11,9 C 11,1 C 8,9 C 90 % 1020,4 hPa 0,0 l/m 0 min 0 min 0 W/m 6,4 km/h (2 Bft) 93,62 %
21.05.2022 03:14 11,9 C 11,1 C 8,9 C 90 % 1020,4 hPa 0,0 l/m 0 min 0 min 0 W/m 16,1 km/h (3 Bft) 95,65 %
21.05.2022 03:16 11,9 C 11,1 C 8,3 C 90 % 1020,4 hPa 0,0 l/m 0 min 0 min 0 W/m 12,9 km/h (3 Bft) 97,87 %
21.05.2022 03:18 11,9 C 11,1 C 8,3 C 90 % 1020,4 hPa 0,0 l/m 0 min 0 min 0 W/m 12,9 km/h (3 Bft) 97,87 %
21.05.2022 03:20 11,9 C 11,1 C 8,3 C 90 % 1020,4 hPa 0,0 l/m 0 min 0 min 0 W/m 6,4 km/h (2 Bft) 95,74 %
21.05.2022 03:22 11,9 C 11,1 C 8,3 C 90 % 1020,4 hPa 0,0 l/m 0 min 0 min 0 W/m 6,4 km/h (2 Bft) 97,87 %
21.05.2022 03:24 11,9 C 11,1 C 8,3 C 90 % 1020,5 hPa 0,0 l/m 0 min 0 min 0 W/m 6,4 km/h (2 Bft) 95,65 %
21.05.2022 03:26 11,9 C 11,1 C 8,9 C 90 % 1020,4 hPa 0,0 l/m 0 min 0 min 0 W/m 12,9 km/h (3 Bft) 93,62 %
21.05.2022 03:28 11,9 C 11,1 C 8,9 C 90 % 1020,4 hPa 0,0 l/m 0 min 0 min 0 W/m 16,1 km/h (3 Bft) 97,87 %
21.05.2022 03:30 11,9 C 11,1 C 8,9 C 90 % 1020,4 hPa 0,0 l/m 0 min 0 min 0 W/m 6,4 km/h (2 Bft) 95,74 %
21.05.2022 03:32 11,9 C 11,1 C 8,3 C 90 % 1020,5 hPa 0,0 l/m 0 min 0 min 0 W/m 6,4 km/h (2 Bft) 97,87 %
21.05.2022 03:34 11,9 C 11,1 C 8,9 C 90 % 1020,4 hPa 0,0 l/m 0 min 0 min 0 W/m 12,9 km/h (3 Bft) 100,00 %
21.05.2022 03:36 11,9 C 11,1 C 8,3 C 90 % 1020,4 hPa 0,0 l/m 0 min 0 min 0 W/m 19,3 km/h (3 Bft) 100,00 %
21.05.2022 03:38 11,9 C 11,1 C 8,3 C 90 % 1020,4 hPa 0,0 l/m 0 min 0 min 0 W/m 12,9 km/h (3 Bft) 100,00 %
21.05.2022 03:40 11,8 C 11,1 C 8,3 C 90 % 1020,3 hPa 0,0 l/m 0 min 0 min 0 W/m 6,4 km/h (2 Bft) 97,87 %
21.05.2022 03:42 11,8 C 11,1 C 8,3 C 90 % 1020,4 hPa 0,0 l/m 0 min 0 min 0 W/m 12,9 km/h (3 Bft) 100,00 %
21.05.2022 03:44 11,8 C 11,1 C 8,3 C 90 % 1020,4 hPa 0,0 l/m 0 min 0 min 0 W/m 6,4 km/h (2 Bft) 97,87 %
21.05.2022 03:46 11,8 C 11,1 C 8,3 C 90 % 1020,4 hPa 0,0 l/m 0 min 0 min 0 W/m 6,4 km/h (2 Bft) 100,00 %
21.05.2022 03:48 11,8 C 11,1 C 8,3 C 90 % 1020,4 hPa 0,0 l/m 0 min 0 min 0 W/m 6,4 km/h (2 Bft) 97,87 %
21.05.2022 03:50 11,8 C 11,1 C 8,3 C 90 % 1020,4 hPa 0,0 l/m 0 min 0 min 0 W/m 6,4 km/h (2 Bft) 97,83 %
21.05.2022 03:52 11,8 C 11,1 C 8,3 C 90 % 1020,3 hPa 0,0 l/m 0 min 0 min 0 W/m 6,4 km/h (2 Bft) 100,00 %
21.05.2022 03:54 11,8 C 11,1 C 8,3 C 90 % 1020,4 hPa 0,0 l/m 0 min 0 min 0 W/m 12,9 km/h (3 Bft) 97,87 %
21.05.2022 03:56 11,8 C 11,1 C 8,3 C 90 % 1020,4 hPa 0,0 l/m 0 min 0 min 0 W/m 6,4 km/h (2 Bft) 97,87 %
21.05.2022 03:58 11,8 C 11,1 C 8,3 C 89 % 1020,3 hPa 0,0 l/m 0 min 0 min 0 W/m 6,4 km/h (2 Bft) 97,87 %
21.05.2022 04:00 11,8 C 11,1 C 8,3 C 89 % 1020,3 hPa 0,0 l/m 0 min 0 min 0 W/m 12,9 km/h (3 Bft) 97,87 %
21.05.2022 04:02 11,8 C 11,1 C 8,3 C 90 % 1020,3 hPa 0,0 l/m 0 min 0 min 0 W/m 12,9 km/h (3 Bft) 100,00 %
21.05.2022 04:04 11,8 C 11,1 C 8,3 C 89 % 1020,3 hPa 0,0 l/m 0 min 0 min 0 W/m 6,4 km/h (2 Bft) 93,62 %
21.05.2022 04:06 11,8 C 11,1 C 8,3 C 89 % 1020,3 hPa 0,0 l/m 0 min 0 min 0 W/m 6,4 km/h (2 Bft) 98,31 %
21.05.2022 04:08 11,8 C 11,1 C 8,3 C 89 % 1020,3 hPa 0,0 l/m 0 min 0 min 0 W/m 12,9 km/h (3 Bft) 97,14 %
21.05.2022 04:10 11,8 C 11,1 C 8,3 C 89 % 1020,3 hPa 0,0 l/m 0 min 0 min 0 W/m 9,7 km/h (2 Bft) 97,87 %
21.05.2022 04:12 11,8 C 11,1 C 8,3 C 89 % 1020,3 hPa 0,0 l/m 0 min 0 min 0 W/m 12,9 km/h (3 Bft) 97,83 %
21.05.2022 04:14 11,7 C 11,1 C 8,3 C 89 % 1020,4 hPa 0,0 l/m 0 min 0 min 0 W/m 12,9 km/h (3 Bft) 97,87 %
21.05.2022 04:16 11,7 C 11,1 C 8,3 C 90 % 1020,4 hPa 0,0 l/m 0 min 0 min 0 W/m 12,9 km/h (3 Bft) 97,87 %
21.05.2022 04:18 11,7 C 11,1 C 8,3 C 90 % 1020,4 hPa 0,0 l/m 0 min 0 min 0 W/m 12,9 km/h (3 Bft) 100,00 %
21.05.2022 04:20 11,7 C 11,1 C 8,3 C 90 % 1020,4 hPa 0,0 l/m 0 min 0 min 0 W/m 12,9 km/h (3 Bft) 100,00 %
21.05.2022 04:22 11,7 C 11,1 C 8,3 C 89 % 1020,4 hPa 0,0 l/m 0 min 0 min 0 W/m 12,9 km/h (3 Bft) 100,00 %
21.05.2022 04:24 11,7 C 11,1 C 8,3 C 90 % 1020,4 hPa 0,0 l/m 0 min 0 min 0 W/m 3,2 km/h (1 Bft) 100,00 %
21.05.2022 04:26 11,7 C 11,1 C 8,3 C 90 % 1020,4 hPa 0,0 l/m 0 min 0 min 0 W/m 12,9 km/h (3 Bft) 97,87 %
21.05.2022 04:28 11,7 C 11,1 C 8,3 C 90 % 1020,4 hPa 0,0 l/m 0 min 0 min 0 W/m 9,7 km/h (2 Bft) 100,00 %
21.05.2022 04:30 11,7 C 11,1 C 8,3 C 90 % 1020,4 hPa 0,0 l/m 0 min 0 min 0 W/m 9,7 km/h (2 Bft) 100,00 %
21.05.2022 04:32 11,8 C 11,1 C 8,3 C 90 % 1020,4 hPa 0,0 l/m 0 min 0 min 0 W/m 16,1 km/h (3 Bft) 100,00 %
21.05.2022 04:34 11,8 C 11,7 C 8,3 C 90 % 1020,4 hPa 0,0 l/m 0 min 0 min 0 W/m 6,4 km/h (2 Bft) 97,87 %
21.05.2022 04:36 11,8 C 11,7 C 8,3 C 90 % 1020,4 hPa 0,0 l/m 0 min 0 min 0 W/m 6,4 km/h (2 Bft) 100,00 %
21.05.2022 04:38 11,8 C 11,7 C 8,9 C 90 % 1020,4 hPa 0,0 l/m 0 min 0 min 0 W/m 9,7 km/h (2 Bft) 100,00 %
21.05.2022 04:40 11,9 C 11,7 C 8,9 C 90 % 1020,4 hPa 0,0 l/m 0 min 0 min 0 W/m 6,4 km/h (2 Bft) 100,00 %
21.05.2022 04:42 11,9 C 11,7 C 8,9 C 90 % 1020,4 hPa 0,0 l/m 0 min 0 min 0 W/m 6,4 km/h (2 Bft) 100,00 %
21.05.2022 04:44 11,9 C 11,7 C 8,9 C 90 % 1020,4 hPa 0,0 l/m 0 min 0 min 0 W/m 16,1 km/h (3 Bft) 100,00 %
21.05.2022 04:46 12,0 C 11,7 C 8,9 C 90 % 1020,4 hPa 0,0 l/m 0 min 0 min 0 W/m 9,7 km/h (2 Bft) 100,00 %
21.05.2022 04:48 12,0 C 11,7 C 8,9 C 90 % 1020,4 hPa 0,0 l/m 0 min 0 min 0 W/m 9,7 km/h (2 Bft) 100,00 %
21.05.2022 04:50 12,0 C 11,7 C 8,9 C 90 % 1020,4 hPa 0,0 l/m 0 min 0 min 0 W/m 12,9 km/h (3 Bft) 100,00 %
21.05.2022 04:52 12,1 C 11,7 C 8,9 C 90 % 1020,4 hPa 0,0 l/m 0 min 0 min 0 W/m 16,1 km/h (3 Bft) 100,00 %
21.05.2022 04:54 12,1 C 11,7 C 8,9 C 90 % 1020,4 hPa 0,0 l/m 0 min 0 min 0 W/m 6,4 km/h (2 Bft) 100,00 %
21.05.2022 04:56 12,1 C 11,7 C 8,9 C 90 % 1020,4 hPa 0,0 l/m 0 min 0 min 0 W/m 12,9 km/h (3 Bft) 97,87 %
21.05.2022 04:58 12,1 C 11,7 C 8,9 C 89 % 1020,4 hPa 0,0 l/m 0 min 0 min 0 W/m 12,9 km/h (3 Bft) 100,00 %
21.05.2022 05:00 12,2 C 11,7 C 8,9 C 89 % 1020,4 hPa 0,0 l/m 0 min 0 min 0 W/m 12,9 km/h (3 Bft) 100,00 %
21.05.2022 05:02 12,1 C 11,7 C 8,9 C 89 % 1020,4 hPa 0,0 l/m 0 min 0 min 0 W/m 16,1 km/h (3 Bft) 100,00 %
21.05.2022 05:04 12,2 C 11,7 C 8,9 C 89 % 1020,4 hPa 0,0 l/m 0 min 0 min 0 W/m 6,4 km/h (2 Bft) 100,00 %
21.05.2022 05:06 12,2 C 11,7 C 8,9 C 89 % 1020,5 hPa 0,0 l/m 0 min 0 min 0 W/m 12,9 km/h (3 Bft) 100,00 %
21.05.2022 05:08 12,2 C 11,7 C 8,9 C 89 % 1020,5 hPa 0,0 l/m 0 min 0 min 0 W/m 6,4 km/h (2 Bft) 97,14 %
21.05.2022 05:10 12,2 C 11,7 C 8,9 C 89 % 1020,5 hPa 0,0 l/m 0 min 0 min 0 W/m 12,9 km/h (3 Bft) 100,00 %
21.05.2022 05:12 12,2 C 11,7 C 8,9 C 90 % 1020,5 hPa 0,0 l/m 0 min 0 min 0 W/m 12,9 km/h (3 Bft) 97,83 %
21.05.2022 05:14 12,2 C 11,7 C 8,9 C 89 % 1020,5 hPa 0,0 l/m 0 min 0 min 0 W/m 9,7 km/h (2 Bft) 100,00 %
21.05.2022 05:16 12,2 C 11,7 C 8,9 C 89 % 1020,5 hPa 0,0 l/m 0 min 0 min 0 W/m 12,9 km/h (3 Bft) 100,00 %
21.05.2022 05:18 12,2 C 11,7 C 8,9 C 89 % 1020,6 hPa 0,0 l/m 0 min 0 min 0 W/m 12,9 km/h (3 Bft) 97,87 %
21.05.2022 05:20 12,2 C 11,7 C 8,9 C 89 % 1020,6 hPa 0,0 l/m 0 min 0 min 0 W/m 12,9 km/h (3 Bft) 100,00 %
21.05.2022 05:22 12,2 C 11,7 C 8,9 C 89 % 1020,6 hPa 0,0 l/m 0 min 0 min 0 W/m 16,1 km/h (3 Bft) 93,62 %
21.05.2022 05:24 12,2 C 11,7 C 8,9 C 89 % 1020,6 hPa 0,0 l/m 0 min 0 min 0 W/m 6,4 km/h (2 Bft) 97,87 %
21.05.2022 05:26 12,2 C 11,7 C 8,9 C 89 % 1020,6 hPa 0,0 l/m 0 min 0 min 0 W/m 12,9 km/h (3 Bft) 97,83 %
21.05.2022 05:28 12,2 C 11,7 C 8,9 C 89 % 1020,6 hPa 0,0 l/m 0 min 0 min 0 W/m 12,9 km/h (3 Bft) 97,87 %
21.05.2022 05:30 12,2 C 11,7 C 8,9 C 89 % 1020,6 hPa 0,0 l/m 0 min 0 min 0 W/m 19,3 km/h (3 Bft) 93,62 %
21.05.2022 05:32 12,2 C 11,7 C 8,9 C 89 % 1020,6 hPa 0,0 l/m 0 min 0 min 0 W/m 12,9 km/h (3 Bft) 93,62 %
21.05.2022 05:35 12,2 C 11,7 C 8,9 C 89 % 1020,6 hPa 0,0 l/m 0 min 0 min 0 W/m 12,9 km/h (3 Bft) 95,71 %
21.05.2022 05:36 12,2 C 11,7 C 8,9 C 89 % 1020,6 hPa 0,0 l/m 0 min 0 min 0 W/m 6,4 km/h (2 Bft) 86,96 %
21.05.2022 05:38 12,2 C 11,7 C 8,9 C 89 % 1020,7 hPa 0,0 l/m 0 min 0 min 0 W/m 16,1 km/h (3 Bft) 93,62 %
21.05.2022 05:40 12,2 C 11,7 C 8,9 C 89 % 1020,6 hPa 0,0 l/m 0 min 0 min 0 W/m 6,4 km/h (2 Bft) 95,74 %
21.05.2022 05:42 12,3 C 11,7 C 8,9 C 89 % 1020,6 hPa 0,0 l/m 0 min 0 min 0 W/m 12,9 km/h (3 Bft) 91,49 %
21.05.2022 05:44 12,3 C 11,7 C 8,9 C 89 % 1020,7 hPa 0,0 l/m 0 min 0 min 0 W/m 19,3 km/h (3 Bft) 93,62 %
21.05.2022 05:46 12,2 C 11,7 C 8,9 C 89 % 1020,6 hPa 0,0 l/m 0 min 0 min 0 W/m 16,1 km/h (3 Bft) 93,62 %
21.05.2022 05:48 12,2 C 11,7 C 8,9 C 89 % 1020,6 hPa 0,0 l/m 0 min 0 min 0 W/m 12,9 km/h (3 Bft) 91,30 %
21.05.2022 05:50 12,3 C 11,7 C 8,9 C 89 % 1020,6 hPa 0,0 l/m 0 min 0 min 0 W/m 9,7 km/h (2 Bft) 93,62 %
21.05.2022 05:54 12,2 C 11,7 C 8,9 C 89 % 1020,6 hPa 0,0 l/m 0 min 0 min 0 W/m 6,4 km/h (2 Bft) 90,91 %
21.05.2022 05:56 12,2 C 11,7 C 8,9 C 89 % 1020,7 hPa 0,0 l/m 0 min 0 min 0 W/m 6,4 km/h (2 Bft) 93,62 %
21.05.2022 05:58 12,2 C 11,7 C 8,9 C 89 % 1020,6 hPa 0,0 l/m 0 min 0 min 0 W/m 22,5 km/h (4 Bft) 91,49 %
21.05.2022 06:00 12,2 C 11,7 C 8,9 C 89 % 1020,6 hPa 0,0 l/m 0 min 0 min 1 W/m 6,4 km/h (2 Bft) 93,48 %
21.05.2022 06:02 12,2 C 11,7 C 8,9 C 89 % 1020,6 hPa 0,0 l/m 0 min 0 min 5 W/m 12,9 km/h (3 Bft) 93,62 %
21.05.2022 06:04 12,2 C 11,7 C 8,9 C 89 % 1020,5 hPa 0,0 l/m 0 min 0 min 5 W/m 16,1 km/h (3 Bft) 91,49 %
21.05.2022 06:07 12,2 C 11,7 C 8,9 C 89 % 1020,6 hPa 0,0 l/m 0 min 0 min 6 W/m 12,9 km/h (3 Bft) 95,71 %
21.05.2022 06:08 12,2 C 11,7 C 8,9 C 89 % 1020,6 hPa 0,0 l/m 0 min 0 min 7 W/m 16,1 km/h (3 Bft) 91,67 %
21.05.2022 06:10 12,2 C 11,7 C 8,9 C 89 % 1020,6 hPa 0,0 l/m 0 min 0 min 7 W/m 19,3 km/h (3 Bft) 97,87 %
21.05.2022 06:12 12,2 C 11,7 C 8,9 C 89 % 1020,7 hPa 0,0 l/m 0 min 0 min 7 W/m 12,9 km/h (3 Bft) 95,65 %
21.05.2022 06:14 12,2 C 11,7 C 8,9 C 89 % 1020,6 hPa 0,0 l/m 0 min 0 min 7 W/m 12,9 km/h (3 Bft) 97,87 %
21.05.2022 06:16 12,2 C 11,7 C 8,9 C 89 % 1020,6 hPa 0,0 l/m 0 min 0 min 7 W/m 12,9 km/h (3 Bft) 97,87 %
21.05.2022 06:18 12,2 C 11,7 C 8,9 C 89 % 1020,7 hPa 0,0 l/m 0 min 0 min 8 W/m 6,4 km/h (2 Bft) 97,87 %
21.05.2022 06:20 12,2 C 11,7 C 8,9 C 89 % 1020,7 hPa 0,0 l/m 0 min 0 min 10 W/m 12,9 km/h (3 Bft) 97,87 %
21.05.2022 06:22 12,2 C 11,7 C 8,9 C 89 % 1020,8 hPa 0,0 l/m 0 min 0 min 11 W/m 16,1 km/h (3 Bft) 97,87 %
21.05.2022 06:24 12,2 C 11,7 C 8,9 C 89 % 1020,8 hPa 0,0 l/m 0 min 0 min 11 W/m 12,9 km/h (3 Bft) 100,00 %
21.05.2022 06:26 12,2 C 11,7 C 8,9 C 89 % 1020,8 hPa 0,0 l/m 0 min 0 min 11 W/m 6,4 km/h (2 Bft) 97,87 %
21.05.2022 06:28 12,2 C 11,7 C 8,9 C 89 % 1020,9 hPa 0,0 l/m 0 min 0 min 11 W/m 6,4 km/h (2 Bft) 95,74 %
21.05.2022 06:30 12,3 C 11,7 C 8,9 C 89 % 1020,9 hPa 0,0 l/m 0 min 0 min 11 W/m 16,1 km/h (3 Bft) 100,00 %
21.05.2022 06:32 12,3 C 11,7 C 8,9 C 89 % 1020,9 hPa 0,0 l/m 0 min 0 min 12 W/m 16,1 km/h (3 Bft) 100,00 %
21.05.2022 06:34 12,2 C 11,7 C 8,9 C 89 % 1020,9 hPa 0,0 l/m 0 min 0 min 13 W/m 9,7 km/h (2 Bft) 97,83 %
21.05.2022 06:36 12,3 C 11,7 C 8,9 C 89 % 1020,9 hPa 0,0 l/m 0 min 0 min 15 W/m 16,1 km/h (3 Bft) 100,00 %
21.05.2022 06:38 12,3 C 11,7 C 8,9 C 89 % 1021,0 hPa 0,0 l/m 0 min 0 min 16 W/m 6,4 km/h (2 Bft) 100,00 %
21.05.2022 06:40 12,3 C 11,7 C 8,9 C 89 % 1021,0 hPa 0,0 l/m 0 min 0 min 16 W/m 6,4 km/h (2 Bft) 100,00 %
21.05.2022 06:42 12,3 C 11,7 C 8,9 C 89 % 1021,0 hPa 0,0 l/m 0 min 0 min 16 W/m 9,7 km/h (2 Bft) 95,74 %
21.05.2022 06:44 12,3 C 11,7 C 8,9 C 89 % 1021,0 hPa 0,0 l/m 0 min 0 min 16 W/m 16,1 km/h (3 Bft) 100,00 %
21.05.2022 06:46 12,3 C 11,7 C 8,9 C 89 % 1021,0 hPa 0,0 l/m 0 min 0 min 15 W/m 12,9 km/h (3 Bft) 100,00 %
21.05.2022 06:48 12,3 C 11,7 C 8,9 C 89 % 1021,0 hPa 0,0 l/m 0 min 0 min 18 W/m 6,4 km/h (2 Bft) 100,00 %
21.05.2022 06:50 12,3 C 11,7 C 8,9 C 89 % 1021,0 hPa 0,0 l/m 0 min 0 min 20 W/m 19,3 km/h (3 Bft) 100,00 %
21.05.2022 06:52 12,3 C 11,7 C 8,9 C 89 % 1021,1 hPa 0,0 l/m 0 min 0 min 22 W/m 6,4 km/h (2 Bft) 97,87 %
21.05.2022 06:54 12,3 C 11,7 C 8,9 C 89 % 1021,1 hPa 0,0 l/m 0 min 0 min 26 W/m 19,3 km/h (3 Bft) 100,00 %
21.05.2022 06:56 12,3 C 11,7 C 8,9 C 89 % 1021,2 hPa 0,0 l/m 0 min 0 min 27 W/m 12,9 km/h (3 Bft) 97,87 %
21.05.2022 06:58 12,3 C 12,2 C 8,9 C 89 % 1021,1 hPa 0,0 l/m 0 min 0 min 30 W/m 12,9 km/h (3 Bft) 97,87 %
21.05.2022 07:00 12,3 C 12,2 C 8,9 C 89 % 1021,1 hPa 0,0 l/m 0 min 0 min 29 W/m 6,4 km/h (2 Bft) 100,00 %
21.05.2022 07:02 12,3 C 12,2 C 8,9 C 89 % 1021,2 hPa 0,0 l/m 0 min 0 min 33 W/m 12,9 km/h (3 Bft) 97,87 %
21.05.2022 07:04 12,4 C 12,2 C 8,9 C 89 % 1021,2 hPa 0,0 l/m 0 min 0 min 38 W/m 12,9 km/h (3 Bft) 100,00 %
21.05.2022 07:06 12,4 C 12,2 C 8,9 C 88 % 1021,2 hPa 0,0 l/m 0 min 0 min 43 W/m 19,3 km/h (3 Bft) 97,87 %
21.05.2022 07:08 12,4 C 12,2 C 8,9 C 88 % 1021,1 hPa 0,0 l/m 0 min 0 min 48 W/m 6,4 km/h (2 Bft) 100,00 %
21.05.2022 07:10 12,4 C 12,2 C 8,9 C 89 % 1021,2 hPa 0,0 l/m 0 min 0 min 57 W/m 6,4 km/h (2 Bft) 100,00 %
21.05.2022 07:12 12,5 C 12,2 C 8,9 C 89 % 1021,1 hPa 0,0 l/m 0 min 0 min 68 W/m 6,4 km/h (2 Bft) 100,00 %
21.05.2022 07:14 12,5 C 12,2 C 8,9 C 89 % 1021,2 hPa 0,0 l/m 0 min 0 min 73 W/m 6,4 km/h (2 Bft) 100,00 %
21.05.2022 07:16 12,6 C 12,2 C 9,4 C 89 % 1021,2 hPa 0,0 l/m 0 min 0 min 69 W/m 6,4 km/h (2 Bft) 97,87 %
21.05.2022 07:18 12,6 C 12,2 C 9,4 C 89 % 1021,2 hPa 0,0 l/m 0 min 0 min 71 W/m 12,9 km/h (3 Bft) 97,83 %
21.05.2022 07:20 12,6 C 12,2 C 9,4 C 89 % 1021,2 hPa 0,0 l/m 0 min 0 min 76 W/m 12,9 km/h (3 Bft) 100,00 %
21.05.2022 07:22 12,6 C 12,2 C 9,4 C 88 % 1021,3 hPa 0,0 l/m 0 min 0 min 77 W/m 6,4 km/h (2 Bft) 100,00 %
21.05.2022 07:24 12,6 C 12,2 C 9,4 C 88 % 1021,2 hPa 0,0 l/m 0 min 0 min 79 W/m 19,3 km/h (3 Bft) 100,00 %
21.05.2022 07:26 12,6 C 12,2 C 9,4 C 88 % 1021,2 hPa 0,0 l/m 0 min 0 min 80 W/m 12,9 km/h (3 Bft) 97,87 %
21.05.2022 07:28 12,7 C 12,2 C 9,4 C 88 % 1021,2 hPa 0,0 l/m 0 min 0 min 83 W/m 6,4 km/h (2 Bft) 95,74 %
21.05.2022 07:30 12,7 C 12,2 C 9,4 C 88 % 1021,2 hPa 0,0 l/m 0 min 0 min 86 W/m 12,9 km/h (3 Bft) 97,83 %
21.05.2022 07:32 12,7 C 12,2 C 9,4 C 88 % 1021,2 hPa 0,0 l/m 0 min 0 min 92 W/m 12,9 km/h (3 Bft) 95,74 %
21.05.2022 07:34 12,7 C 12,8 C 9,4 C 88 % 1021,2 hPa 0,0 l/m 0 min 0 min 89 W/m 6,4 km/h (2 Bft) 95,74 %
21.05.2022 07:36 12,7 C 12,2 C 9,4 C 88 % 1021,2 hPa 0,0 l/m 0 min 0 min 81 W/m 25,7 km/h (4 Bft) 97,87 %
21.05.2022 07:38 12,7 C 12,2 C 9,4 C 88 % 1021,2 hPa 0,0 l/m 0 min 0 min 71 W/m 12,9 km/h (3 Bft) 95,74 %
21.05.2022 07:40 12,7 C 12,2 C 9,4 C 88 % 1021,2 hPa 0,0 l/m 0 min 0 min 69 W/m 12,9 km/h (3 Bft) 97,87 %
21.05.2022 07:42 12,8 C 12,2 C 9,4 C 88 % 1021,2 hPa 0,0 l/m 0 min 0 min 65 W/m 6,4 km/h (2 Bft) 97,83 %
21.05.2022 07:44 12,8 C 12,2 C 9,4 C 88 % 1021,3 hPa 0,0 l/m 0 min 0 min 61 W/m 12,9 km/h (3 Bft) 97,87 %
21.05.2022 07:46 12,8 C 12,2 C 9,4 C 88 % 1021,3 hPa 0,0 l/m 0 min 0 min 64 W/m 12,9 km/h (3 Bft) 97,87 %
21.05.2022 07:48 12,8 C 12,2 C 9,4 C 88 % 1021,3 hPa 0,0 l/m 0 min 0 min 63 W/m 9,7 km/h (2 Bft) 97,87 %
21.05.2022 07:50 12,8 C 12,2 C 9,4 C 88 % 1021,3 hPa 0,0 l/m 0 min 0 min 62 W/m 12,9 km/h (3 Bft) 97,87 %
21.05.2022 07:52 12,8 C 12,2 C 9,4 C 88 % 1021,4 hPa 0,0 l/m 0 min 0 min 66 W/m 12,9 km/h (3 Bft) 97,87 %
21.05.2022 07:54 12,8 C 12,2 C 9,4 C 88 % 1021,4 hPa 0,0 l/m 0 min 0 min 67 W/m 9,7 km/h (2 Bft) 95,65 %
21.05.2022 07:56 12,8 C 12,2 C 9,4 C 88 % 1021,4 hPa 0,0 l/m 0 min 0 min 68 W/m 12,9 km/h (3 Bft) 97,87 %
21.05.2022 07:58 12,8 C 12,2 C 9,4 C 88 % 1021,4 hPa 0,0 l/m 0 min 0 min 65 W/m 6,4 km/h (2 Bft) 97,87 %
21.05.2022 08:00 12,8 C 12,2 C 9,4 C 88 % 1021,4 hPa 0,0 l/m 0 min 0 min 69 W/m 22,5 km/h (4 Bft) 100,00 %
21.05.2022 08:02 12,8 C 12,2 C 9,4 C 88 % 1021,4 hPa 0,0 l/m 0 min 0 min 65 W/m 12,9 km/h (3 Bft) 97,87 %
21.05.2022 08:04 12,8 C 12,2 C 9,4 C 88 % 1021,4 hPa 0,0 l/m 0 min 0 min 64 W/m 6,4 km/h (2 Bft) 97,87 %
21.05.2022 08:06 12,8 C 12,2 C 9,4 C 88 % 1021,5 hPa 0,0 l/m 0 min 0 min 65 W/m 16,1 km/h (3 Bft) 97,83 %
21.05.2022 08:08 12,8 C 12,2 C 9,4 C 88 % 1021,4 hPa 0,0 l/m 0 min 0 min 62 W/m 16,1 km/h (3 Bft) 100,00 %
21.05.2022 08:10 12,8 C 12,8 C 9,4 C 88 % 1021,4 hPa 0,0 l/m 0 min 0 min 73 W/m 6,4 km/h (2 Bft) 100,00 %
21.05.2022 08:12 12,8 C 12,2 C 9,4 C 88 % 1021,5 hPa 0,0 l/m 0 min 0 min 78 W/m 12,9 km/h (3 Bft) 95,74 %
21.05.2022 08:14 12,8 C 12,2 C 9,4 C 88 % 1021,5 hPa 0,0 l/m 0 min 0 min 80 W/m 12,9 km/h (3 Bft) 97,87 %
21.05.2022 08:16 12,8 C 12,8 C 9,4 C 88 % 1021,5 hPa 0,0 l/m 0 min 0 min 76 W/m 12,9 km/h (3 Bft) 97,87 %
21.05.2022 08:18 12,8 C 12,8 C 9,4 C 88 % 1021,4 hPa 0,0 l/m 0 min 0 min 73 W/m 12,9 km/h (3 Bft) 97,83 %
21.05.2022 08:20 12,8 C 12,2 C 9,4 C 88 % 1021,5 hPa 0,0 l/m 0 min 0 min 64 W/m 12,9 km/h (3 Bft) 97,87 %
21.05.2022 08:22 12,8 C 12,2 C 9,4 C 88 % 1021,5 hPa 0,0 l/m 0 min 0 min 66 W/m 12,9 km/h (3 Bft) 95,74 %
21.05.2022 08:24 12,8 C 12,2 C 9,4 C 88 % 1021,5 hPa 0,0 l/m 0 min 0 min 63 W/m 16,1 km/h (3 Bft) 95,74 %
21.05.2022 08:26 12,8 C 12,2 C 9,4 C 88 % 1021,5 hPa 0,0 l/m 0 min 0 min 74 W/m 12,9 km/h (3 Bft) 95,74 %
21.05.2022 08:28 12,8 C 12,2 C 9,4 C 88 % 1021,5 hPa 0,0 l/m 0 min 0 min 78 W/m 12,9 km/h (3 Bft) 95,74 %
21.05.2022 08:30 12,8 C 12,8 C 9,4 C 88 % 1021,5 hPa 0,0 l/m 0 min 0 min 79 W/m 12,9 km/h (3 Bft) 95,65 %
21.05.2022 08:32 12,8 C 12,8 C 9,4 C 88 % 1021,5 hPa 0,0 l/m 0 min 0 min 84 W/m 16,1 km/h (3 Bft) 95,74 %
21.05.2022 08:34 12,8 C 12,8 C 9,4 C 88 % 1021,5 hPa 0,0 l/m 0 min 0 min 77 W/m 19,3 km/h (3 Bft) 95,74 %
21.05.2022 08:36 12,8 C 12,8 C 9,4 C 88 % 1021,6 hPa 0,0 l/m 0 min 0 min 80 W/m 12,9 km/h (3 Bft) 91,49 %
21.05.2022 08:38 12,8 C 12,8 C 9,4 C 88 % 1021,6 hPa 0,0 l/m 0 min 0 min 83 W/m 9,7 km/h (2 Bft) 93,62 %
21.05.2022 08:40 12,9 C 12,8 C 9,4 C 88 % 1021,5 hPa 0,0 l/m 0 min 0 min 104 W/m 6,4 km/h (2 Bft) 95,74 %
21.05.2022 08:42 12,9 C 12,8 C 9,4 C 88 % 1021,5 hPa 0,0 l/m 0 min 0 min 113 W/m 6,4 km/h (2 Bft) 95,65 %
21.05.2022 08:44 12,9 C 12,8 C 9,4 C 88 % 1021,5 hPa 0,0 l/m 0 min 0 min 131 W/m 6,4 km/h (2 Bft) 95,74 %
21.05.2022 08:46 13,0 C 12,8 C 10,0 C 88 % 1021,5 hPa 0,0 l/m 0 min 0 min 131 W/m 6,4 km/h (2 Bft) 95,74 %
21.05.2022 08:48 13,0 C 12,8 C 10,0 C 88 % 1021,6 hPa 0,0 l/m 0 min 0 min 136 W/m 6,4 km/h (2 Bft) 95,74 %
21.05.2022 08:50 13,1 C 12,8 C 10,0 C 88 % 1021,5 hPa 0,0 l/m 0 min 0 min 140 W/m 9,7 km/h (2 Bft) 93,62 %
21.05.2022 08:52 13,1 C 12,8 C 10,0 C 87 % 1021,6 hPa 0,0 l/m 0 min 0 min 148 W/m 16,1 km/h (3 Bft) 95,74 %
21.05.2022 08:54 13,1 C 12,8 C 10,0 C 87 % 1021,6 hPa 0,0 l/m 0 min 0 min 127 W/m 6,4 km/h (2 Bft) 95,65 %
21.05.2022 08:56 13,1 C 12,8 C 10,0 C 87 % 1021,6 hPa 0,0 l/m 0 min 0 min 118 W/m 6,4 km/h (2 Bft) 93,62 %
21.05.2022 08:58 13,1 C 12,8 C 10,0 C 88 % 1021,6 hPa 0,0 l/m 0 min 0 min 102 W/m 9,7 km/h (2 Bft) 95,74 %
21.05.2022 09:00 13,2 C 12,8 C 10,0 C 88 % 1021,7 hPa 0,0 l/m 0 min 0 min 89 W/m 12,9 km/h (3 Bft) 95,74 %
21.05.2022 09:02 13,2 C 12,8 C 10,0 C 88 % 1021,7 hPa 0,0 l/m 0 min 0 min 86 W/m 12,9 km/h (3 Bft) 95,74 %
21.05.2022 09:04 13,2 C 12,8 C 9,4 C 87 % 1021,7 hPa 0,0 l/m 0 min 0 min 85 W/m 16,1 km/h (3 Bft) 95,74 %
21.05.2022 09:06 13,2 C 12,8 C 9,4 C 87 % 1021,7 hPa 0,0 l/m 0 min 0 min 95 W/m 12,9 km/h (3 Bft) 97,83 %
21.05.2022 09:08 13,2 C 12,8 C 9,4 C 87 % 1021,8 hPa 0,0 l/m 0 min 0 min 103 W/m 12,9 km/h (3 Bft) 97,87 %
21.05.2022 09:10 13,2 C 12,8 C 9,4 C 87 % 1021,8 hPa 0,0 l/m 0 min 0 min 93 W/m 12,9 km/h (3 Bft) 97,87 %
21.05.2022 09:12 13,2 C 12,8 C 9,4 C 87 % 1021,8 hPa 0,0 l/m 0 min 0 min 89 W/m 12,9 km/h (3 Bft) 100,00 %
21.05.2022 09:14 13,2 C 12,8 C 9,4 C 87 % 1021,8 hPa 0,0 l/m 0 min 0 min 85 W/m 12,9 km/h (3 Bft) 100,00 %
21.05.2022 09:16 13,2 C 12,8 C 9,4 C 87 % 1021,8 hPa 0,0 l/m 0 min 0 min 86 W/m 22,5 km/h (4 Bft) 100,00 %
21.05.2022 09:18 13,2 C 12,8 C 9,4 C 87 % 1021,9 hPa 0,0 l/m 0 min 0 min 90 W/m 9,7 km/h (2 Bft) 93,48 %
21.05.2022 09:20 13,2 C 12,8 C 9,4 C 87 % 1021,8 hPa 0,0 l/m 0 min 0 min 89 W/m 12,9 km/h (3 Bft) 100,00 %
21.05.2022 09:22 13,2 C 12,8 C 9,4 C 87 % 1021,9 hPa 0,0 l/m 0 min 0 min 88 W/m 16,1 km/h (3 Bft) 100,00 %
21.05.2022 09:24 13,2 C 12,8 C 9,4 C 87 % 1021,9 hPa 0,0 l/m 0 min 0 min 91 W/m 9,7 km/h (2 Bft) 100,00 %
21.05.2022 09:26 13,2 C 12,8 C 9,4 C 87 % 1021,8 hPa 0,0 l/m 0 min 0 min 91 W/m 12,9 km/h (3 Bft) 97,87 %
21.05.2022 09:28 13,2 C 12,8 C 9,4 C 87 % 1021,9 hPa 0,0 l/m 0 min 0 min 78 W/m 12,9 km/h (3 Bft) 95,74 %
21.05.2022 09:30 13,2 C 12,8 C 9,4 C 87 % 1021,9 hPa 0,0 l/m 0 min 0 min 89 W/m 16,1 km/h (3 Bft) 97,83 %
21.05.2022 09:32 13,2 C 12,8 C 9,4 C 87 % 1021,8 hPa 0,0 l/m 0 min 0 min 89 W/m 16,1 km/h (3 Bft) 97,87 %
21.05.2022 09:34 13,2 C 12,8 C 9,4 C 87 % 1022,0 hPa 0,0 l/m 0 min 0 min 105 W/m 12,9 km/h (3 Bft) 97,87 %
21.05.2022 09:36 13,2 C 12,8 C 9,4 C 87 % 1022,0 hPa 0,0 l/m 0 min 0 min 108 W/m 16,1 km/h (3 Bft) 97,87 %
21.05.2022 09:38 13,2 C 12,8 C 10,0 C 87 % 1022,0 hPa 0,0 l/m 0 min 0 min 96 W/m 6,4 km/h (2 Bft) 97,87 %
21.05.2022 09:40 13,3 C 13,3 C 10,0 C 87 % 1022,0 hPa 0,0 l/m 0 min 0 min 128 W/m 12,9 km/h (3 Bft) 97,87 %
21.05.2022 09:42 13,3 C 13,3 C 10,0 C 87 % 1022,0 hPa 0,0 l/m 0 min 0 min 111 W/m 12,9 km/h (3 Bft) 95,65 %
21.05.2022 09:44 13,3 C 13,3 C 10,0 C 87 % 1022,0 hPa 0,0 l/m 0 min 0 min 105 W/m 19,3 km/h (3 Bft) 97,87 %
21.05.2022 09:46 13,3 C 13,3 C 10,0 C 87 % 1022,0 hPa 0,0 l/m 0 min 0 min 117 W/m 19,3 km/h (3 Bft) 93,62 %
21.05.2022 09:48 13,3 C 13,3 C 10,0 C 87 % 1022,1 hPa 0,0 l/m 0 min 0 min 152 W/m 12,9 km/h (3 Bft) 95,74 %
21.05.2022 09:50 13,4 C 13,3 C 10,0 C 87 % 1022,1 hPa 0,0 l/m 0 min 0 min 123 W/m 12,9 km/h (3 Bft) 95,74 %
21.05.2022 09:52 13,4 C 13,3 C 10,0 C 87 % 1022,1 hPa 0,0 l/m 0 min 0 min 107 W/m 6,4 km/h (2 Bft) 97,87 %
21.05.2022 09:54 13,4 C 13,3 C 10,0 C 87 % 1022,2 hPa 0,0 l/m 0 min 0 min 147 W/m 6,4 km/h (2 Bft) 97,83 %
21.05.2022 09:56 13,5 C 13,3 C 10,0 C 87 % 1022,2 hPa 0,0 l/m 0 min 0 min 134 W/m 9,7 km/h (2 Bft) 97,87 %
21.05.2022 09:58 13,5 C 13,3 C 10,0 C 87 % 1022,2 hPa 0,0 l/m 0 min 0 min 158 W/m 12,9 km/h (3 Bft) 100,00 %
21.05.2022 10:00 13,6 C 13,3 C 10,0 C 87 % 1022,2 hPa 0,0 l/m 0 min 0 min 175 W/m 6,4 km/h (2 Bft) 100,00 %
21.05.2022 10:02 13,6 C 13,9 C 10,6 C 87 % 1022,2 hPa 0,0 l/m 0 min 0 min 193 W/m 6,4 km/h (2 Bft) 97,87 %
21.05.2022 10:04 13,7 C 13,9 C 10,6 C 87 % 1022,2 hPa 0,0 l/m 0 min 0 min 188 W/m 6,4 km/h (2 Bft) 100,00 %
21.05.2022 10:06 13,7 C 13,9 C 10,6 C 87 % 1022,2 hPa 0,0 l/m 0 min 0 min 195 W/m 19,3 km/h (3 Bft) 100,00 %
21.05.2022 10:08 13,8 C 13,9 C 10,6 C 86 % 1022,2 hPa 0,0 l/m 0 min 0 min 192 W/m 12,9 km/h (3 Bft) 100,00 %
21.05.2022 10:10 13,8 C 13,9 C 10,6 C 86 % 1022,1 hPa 0,0 l/m 0 min 0 min 218 W/m 6,4 km/h (2 Bft) 100,00 %
21.05.2022 10:12 13,8 C 13,9 C 10,6 C 86 % 1022,2 hPa 0,0 l/m 0 min 0 min 240 W/m 6,4 km/h (2 Bft) 97,87 %
21.05.2022 10:14 13,9 C 14,4 C 11,1 C 86 % 1022,2 hPa 0,0 l/m 0 min 0 min 213 W/m 9,7 km/h (2 Bft) 100,00 %
21.05.2022 10:16 14,0 C 14,4 C 11,1 C 86 % 1022,3 hPa 0,0 l/m 0 min 0 min 209 W/m 9,7 km/h (2 Bft) 100,00 %
21.05.2022 10:18 14,1 C 14,4 C 10,6 C 85 % 1022,3 hPa 0,0 l/m 0 min 0 min 234 W/m 12,9 km/h (3 Bft) 100,00 %
21.05.2022 10:20 14,1 C 14,4 C 10,6 C 85 % 1022,3 hPa 0,0 l/m 0 min 0 min 255 W/m 16,1 km/h (3 Bft) 100,00 %
21.05.2022 10:22 14,1 C 14,4 C 10,6 C 85 % 1022,3 hPa 0,0 l/m 0 min 0 min 252 W/m 16,1 km/h (3 Bft) 100,00 %
21.05.2022 10:24 14,2 C 14,4 C 11,1 C 85 % 1022,3 hPa 0,0 l/m 0 min 0 min 218 W/m 9,7 km/h (2 Bft) 100,00 %
21.05.2022 10:26 14,3 C 14,4 C 11,1 C 84 % 1022,4 hPa 0,0 l/m 0 min 0 min 249 W/m 12,9 km/h (3 Bft) 100,00 %
21.05.2022 10:28 14,3 C 14,4 C 11,1 C 84 % 1022,3 hPa 0,0 l/m 0 min 0 min 247 W/m 19,3 km/h (3 Bft) 100,00 %
21.05.2022 10:30 14,3 C 14,4 C 11,7 C 84 % 1022,4 hPa 0,0 l/m 2 min 0 min 421 W/m 16,1 km/h (3 Bft) 100,00 %
21.05.2022 10:32 14,3 C 15,0 C 12,2 C 84 % 1022,3 hPa 0,0 l/m 2 min 0 min 902 W/m 12,9 km/h (3 Bft) 100,00 %
21.05.2022 10:34 14,6 C 15,6 C 12,8 C 84 % 1022,3 hPa 0,0 l/m 2 min 0 min 955 W/m 12,9 km/h (3 Bft) 100,00 %
21.05.2022 10:36 14,7 C 16,1 C 12,8 C 84 % 1022,2 hPa 0,0 l/m 2 min 0 min 528 W/m 6,4 km/h (2 Bft) 100,00 %
21.05.2022 10:38 14,8 C 15,6 C 12,8 C 83 % 1022,3 hPa 0,0 l/m 0 min 0 min 319 W/m 12,9 km/h (3 Bft) 100,00 %
21.05.2022 10:40 14,8 C 15,6 C 12,2 C 83 % 1022,3 hPa 0,0 l/m 0 min 0 min 210 W/m 16,1 km/h (3 Bft) 100,00 %
21.05.2022 10:42 14,8 C 15,0 C 11,7 C 82 % 1022,3 hPa 0,0 l/m 0 min 0 min 224 W/m 19,3 km/h (3 Bft) 100,00 %
21.05.2022 10:44 14,8 C 15,0 C 11,7 C 82 % 1022,4 hPa 0,0 l/m 0 min 0 min 180 W/m 16,1 km/h (3 Bft) 100,00 %
21.05.2022 10:46 14,8 C 14,4 C 11,1 C 82 % 1022,3 hPa 0,0 l/m 0 min 0 min 158 W/m 16,1 km/h (3 Bft) 100,00 %
21.05.2022 10:48 14,7 C 14,4 C 11,1 C 82 % 1022,3 hPa 0,0 l/m 0 min 0 min 155 W/m 12,9 km/h (3 Bft) 100,00 %
21.05.2022 10:50 14,7 C 14,4 C 11,1 C 82 % 1022,3 hPa 0,0 l/m 0 min 0 min 138 W/m 6,4 km/h (2 Bft) 100,00 %
21.05.2022 10:52 14,7 C 15,0 C 11,1 C 82 % 1022,3 hPa 0,0 l/m 0 min 0 min 197 W/m 22,5 km/h (4 Bft) 100,00 %
21.05.2022 10:54 14,8 C 15,6 C 11,7 C 82 % 1022,4 hPa 0,0 l/m 0 min 0 min 337 W/m 19,3 km/h (3 Bft) 100,00 %
21.05.2022 10:56 14,9 C 16,1 C 12,2 C 82 % 1022,4 hPa 0,0 l/m 2 min 0 min 660 W/m 16,1 km/h (3 Bft) 100,00 %
21.05.2022 10:58 15,0 C 16,1 C 12,2 C 82 % 1022,4 hPa 0,0 l/m 2 min 0 min 831 W/m 19,3 km/h (3 Bft) 100,00 %
21.05.2022 11:00 15,1 C 16,1 C 12,2 C 81 % 1022,4 hPa 0,0 l/m 2 min 0 min 362 W/m 12,9 km/h (3 Bft) 100,00 %
21.05.2022 11:02 15,2 C 16,7 C 12,2 C 81 % 1022,4 hPa 0,0 l/m 2 min 0 min 373 W/m 6,4 km/h (2 Bft) 97,87 %
21.05.2022 11:04 15,4 C 17,2 C 12,8 C 82 % 1022,4 hPa 0,0 l/m 2 min 0 min 977 W/m 16,1 km/h (3 Bft) 97,87 %
21.05.2022 11:06 15,6 C 17,2 C 12,8 C 81 % 1022,3 hPa 0,0 l/m 2 min 0 min 743 W/m 9,7 km/h (2 Bft) 97,87 %
21.05.2022 11:08 15,6 C 16,7 C 12,8 C 80 % 1022,4 hPa 0,0 l/m 0 min 0 min 229 W/m 19,3 km/h (3 Bft) 97,83 %
21.05.2022 11:10 15,6 C 16,1 C 12,2 C 79 % 1022,5 hPa 0,0 l/m 0 min 0 min 202 W/m 9,7 km/h (2 Bft) 97,87 %
21.05.2022 11:12 15,7 C 16,1 C 12,2 C 79 % 1022,4 hPa 0,0 l/m 0 min 0 min 284 W/m 12,9 km/h (3 Bft) 97,87 %
21.05.2022 11:14 15,7 C 16,1 C 12,2 C 79 % 1022,4 hPa 0,0 l/m 0 min 0 min 338 W/m 6,4 km/h (2 Bft) 97,87 %
21.05.2022 11:16 15,7 C 16,1 C 12,8 C 79 % 1022,5 hPa 0,0 l/m 0 min 0 min 345 W/m 12,9 km/h (3 Bft) 97,87 %
21.05.2022 11:18 15,7 C 16,1 C 12,8 C 79 % 1022,5 hPa 0,0 l/m 0 min 0 min 362 W/m 12,9 km/h (3 Bft) 95,74 %
21.05.2022 11:20 15,7 C 16,1 C 12,8 C 79 % 1022,4 hPa 0,0 l/m 0 min 0 min 261 W/m 16,1 km/h (3 Bft) 95,65 %
21.05.2022 11:22 15,7 C 16,1 C 12,2 C 79 % 1022,5 hPa 0,0 l/m 0 min 0 min 302 W/m 12,9 km/h (3 Bft) 95,74 %
21.05.2022 11:24 15,7 C 16,1 C 12,8 C 79 % 1022,4 hPa 0,0 l/m 2 min 0 min 397 W/m 12,9 km/h (3 Bft) 95,74 %
21.05.2022 11:26 15,7 C 16,7 C 12,8 C 79 % 1022,4 hPa 0,0 l/m 2 min 0 min 506 W/m 12,9 km/h (3 Bft) 97,87 %
21.05.2022 11:28 15,8 C 16,7 C 12,8 C 79 % 1022,4 hPa 0,0 l/m 2 min 0 min 498 W/m 19,3 km/h (3 Bft) 95,74 %
21.05.2022 11:30 15,8 C 17,2 C 13,3 C 78 % 1022,4 hPa 0,0 l/m 2 min 0 min 666 W/m 22,5 km/h (4 Bft) 95,74 %
21.05.2022 11:32 15,9 C 17,2 C 13,3 C 78 % 1022,3 hPa 0,0 l/m 2 min 0 min 879 W/m 19,3 km/h (3 Bft) 95,65 %
21.05.2022 11:35 16,1 C 17,8 C 13,3 C 78 % 1022,4 hPa 0,0 l/m 3 min 0 min 825 W/m 12,9 km/h (3 Bft) 96,34 %
21.05.2022 11:36 16,2 C 17,8 C 13,3 C 78 % 1022,4 hPa 0,0 l/m 1 min 0 min 586 W/m 19,3 km/h (3 Bft) 83,33 %
21.05.2022 11:38 16,3 C 17,8 C 13,9 C 78 % 1022,3 hPa 0,0 l/m 2 min 0 min 554 W/m 12,9 km/h (3 Bft) 93,62 %
21.05.2022 11:40 16,3 C 17,8 C 13,9 C 78 % 1022,4 hPa 0,0 l/m 2 min 0 min 590 W/m 12,9 km/h (3 Bft) 91,49 %
21.05.2022 11:42 16,5 C 17,8 C 13,9 C 78 % 1022,3 hPa 0,0 l/m 2 min 0 min 434 W/m 12,9 km/h (3 Bft) 93,62 %
21.05.2022 11:44 16,6 C 17,8 C 13,9 C 78 % 1022,4 hPa 0,0 l/m 0 min 0 min 338 W/m 12,9 km/h (3 Bft) 93,48 %
21.05.2022 11:46 16,6 C 17,2 C 13,3 C 77 % 1022,4 hPa 0,0 l/m 0 min 0 min 285 W/m 19,3 km/h (3 Bft) 95,74 %
21.05.2022 11:48 16,5 C 16,7 C 13,3 C 77 % 1022,4 hPa 0,0 l/m 0 min 0 min 314 W/m 12,9 km/h (3 Bft) 95,74 %
21.05.2022 11:50 16,5 C 17,2 C 13,9 C 77 % 1022,4 hPa 0,0 l/m 0 min 0 min 387 W/m 12,9 km/h (3 Bft) 95,74 %
21.05.2022 11:52 16,5 C 17,2 C 13,3 C 77 % 1022,4 hPa 0,0 l/m 0 min 0 min 356 W/m 9,7 km/h (2 Bft) 93,62 %
21.05.2022 11:54 16,6 C 17,8 C 13,9 C 77 % 1022,4 hPa 0,0 l/m 0 min 0 min 387 W/m 19,3 km/h (3 Bft) 95,74 %
21.05.2022 11:56 16,6 C 17,8 C 13,9 C 77 % 1022,4 hPa 0,0 l/m 0 min 0 min 372 W/m 16,1 km/h (3 Bft) 95,65 %
21.05.2022 11:58 16,6 C 17,2 C 13,9 C 77 % 1022,3 hPa 0,0 l/m 0 min 0 min 260 W/m 16,1 km/h (3 Bft) 96,00 %
21.05.2022 12:00 16,6 C 17,2 C 13,3 C 76 % 1022,4 hPa 0,0 l/m 0 min 0 min 323 W/m 12,9 km/h (3 Bft) 93,62 %
21.05.2022 12:02 16,6 C 17,8 C 13,9 C 76 % 1022,2 hPa 0,0 l/m 0 min 0 min 362 W/m 12,9 km/h (3 Bft) 95,83 %
21.05.2022 12:04 16,6 C 18,3 C 16,1 C 77 % 1022,4 hPa 0,0 l/m 2 min 0 min 976 W/m 32,2 km/h (5 Bft) 95,74 %
21.05.2022 12:07 16,8 C 19,4 C 17,8 C 77 % 1022,2 hPa 0,0 l/m 3 min 0 min 973 W/m 9,7 km/h (2 Bft) 95,77 %
21.05.2022 12:08 16,9 C 19,4 C 18,3 C 77 % 1022,2 hPa 0,0 l/m 1 min 0 min 953 W/m 22,5 km/h (4 Bft) 91,67 %
21.05.2022 12:10 17,1 C 20,0 C 19,4 C 76 % 1022,2 hPa 0,0 l/m 2 min 0 min 920 W/m 12,9 km/h (3 Bft) 97,83 %
21.05.2022 12:12 17,3 C 20,0 C 19,4 C 76 % 1022,2 hPa 0,0 l/m 2 min 0 min 893 W/m 6,4 km/h (2 Bft) 97,87 %
21.05.2022 12:14 17,4 C 19,4 C 19,4 C 75 % 1022,3 hPa 0,0 l/m 2 min 0 min 755 W/m 12,9 km/h (3 Bft) 95,74 %
21.05.2022 12:16 17,5 C 20,0 C 20,0 C 75 % 1022,1 hPa 0,0 l/m 2 min 0 min 766 W/m 6,4 km/h (2 Bft) 97,87 %
21.05.2022 12:18 17,7 C 20,6 C 20,6 C 74 % 1022,2 hPa 0,0 l/m 2 min 0 min 903 W/m 16,1 km/h (3 Bft) 97,87 %
21.05.2022 12:20 17,8 C 21,1 C 21,7 C 74 % 1022,2 hPa 0,0 l/m 2 min 0 min 992 W/m 16,1 km/h (3 Bft) 97,87 %
21.05.2022 12:22 17,9 C 20,6 C 20,0 C 74 % 1022,3 hPa 0,0 l/m 2 min 0 min 773 W/m 12,9 km/h (3 Bft) 97,83 %
21.05.2022 12:24 17,9 C 19,4 C 18,9 C 73 % 1022,3 hPa 0,0 l/m 0 min 0 min 398 W/m 12,9 km/h (3 Bft) 97,87 %
21.05.2022 12:26 17,9 C 19,4 C 19,4 C 73 % 1022,4 hPa 0,0 l/m 2 min 0 min 527 W/m 9,7 km/h (2 Bft) 97,87 %
21.05.2022 12:28 18,1 C 20,0 C 20,6 C 72 % 1022,2 hPa 0,0 l/m 2 min 0 min 1066 W/m 12,9 km/h (3 Bft) 93,62 %
21.05.2022 12:30 18,1 C 20,6 C 21,1 C 72 % 1022,3 hPa 0,0 l/m 2 min 0 min 1122 W/m 12,9 km/h (3 Bft) 97,87 %
21.05.2022 12:32 18,2 C 20,0 C 20,6 C 72 % 1022,3 hPa 0,0 l/m 2 min 0 min 1144 W/m 19,3 km/h (3 Bft) 97,87 %
21.05.2022 12:34 18,2 C 20,0 C 19,4 C 72 % 1022,3 hPa 0,0 l/m 2 min 0 min 916 W/m 16,1 km/h (3 Bft) 97,83 %
21.05.2022 12:36 18,2 C 19,4 C 17,8 C 72 % 1022,4 hPa 0,0 l/m 0 min 0 min 402 W/m 16,1 km/h (3 Bft) 95,74 %
21.05.2022 12:38 18,1 C 18,9 C 16,7 C 71 % 1022,4 hPa 0,0 l/m 0 min 0 min 402 W/m 25,7 km/h (4 Bft) 97,87 %
21.05.2022 12:40 17,9 C 18,3 C 16,7 C 71 % 1022,3 hPa 0,0 l/m 2 min 0 min 427 W/m 16,1 km/h (3 Bft) 97,87 %
21.05.2022 12:42 17,8 C 18,9 C 16,1 C 72 % 1022,4 hPa 0,0 l/m 2 min 0 min 481 W/m 19,3 km/h (3 Bft) 97,87 %
21.05.2022 12:44 17,8 C 18,3 C 16,1 C 71 % 1022,3 hPa 0,0 l/m 2 min 0 min 505 W/m 22,5 km/h (4 Bft) 95,74 %
21.05.2022 12:46 17,8 C 18,3 C 16,1 C 72 % 1022,4 hPa 0,0 l/m 2 min 0 min 489 W/m 12,9 km/h (3 Bft) 97,83 %
21.05.2022 12:48 17,8 C 18,9 C 17,2 C 72 % 1022,3 hPa 0,0 l/m 2 min 0 min 489 W/m 19,3 km/h (3 Bft) 95,74 %
21.05.2022 12:50 17,9 C 20,0 C 18,9 C 72 % 1022,3 hPa 0,0 l/m 2 min 0 min 814 W/m 12,9 km/h (3 Bft) 95,74 %
21.05.2022 12:52 18,1 C 20,6 C 20,6 C 73 % 1022,3 hPa 0,0 l/m 2 min 0 min 1134 W/m 22,5 km/h (4 Bft) 97,87 %
21.05.2022 12:54 18,3 C 20,6 C 20,6 C 72 % 1022,2 hPa 0,0 l/m 2 min 0 min 1171 W/m 9,7 km/h (2 Bft) 97,87 %
21.05.2022 12:56 18,5 C 20,6 C 19,4 C 73 % 1022,2 hPa 0,0 l/m 2 min 0 min 630 W/m 9,7 km/h (2 Bft) 97,87 %
21.05.2022 12:58 18,5 C 19,4 C 17,8 C 71 % 1022,1 hPa 0,0 l/m 0 min 0 min 286 W/m 16,1 km/h (3 Bft) 97,83 %
21.05.2022 13:00 18,5 C 19,4 C 17,8 C 70 % 1022,1 hPa 0,0 l/m 0 min 0 min 319 W/m 12,9 km/h (3 Bft) 93,62 %
21.05.2022 13:02 18,6 C 19,4 C 17,2 C 70 % 1022,1 hPa 0,0 l/m 0 min 0 min 367 W/m 6,4 km/h (2 Bft) 97,87 %
21.05.2022 13:04 18,5 C 19,4 C 16,7 C 68 % 1022,1 hPa 0,0 l/m 0 min 0 min 405 W/m 9,7 km/h (2 Bft) 97,87 %
21.05.2022 13:06 18,5 C 19,4 C 16,1 C 68 % 1022,1 hPa 0,0 l/m 0 min 0 min 410 W/m 9,7 km/h (2 Bft) 97,87 %
21.05.2022 13:08 18,5 C 19,4 C 16,7 C 68 % 1022,2 hPa 0,0 l/m 2 min 0 min 511 W/m 12,9 km/h (3 Bft) 100,00 %
21.05.2022 13:10 18,4 C 18,9 C 16,1 C 67 % 1022,1 hPa 0,0 l/m 2 min 0 min 602 W/m 9,7 km/h (2 Bft) 100,00 %
21.05.2022 13:12 18,4 C 18,9 C 16,1 C 68 % 1022,1 hPa 0,0 l/m 2 min 0 min 512 W/m 6,4 km/h (2 Bft) 100,00 %
21.05.2022 13:14 18,4 C 18,3 C 15,6 C 67 % 1022,1 hPa 0,0 l/m 0 min 0 min 363 W/m 16,1 km/h (3 Bft) 100,00 %
21.05.2022 13:16 18,3 C 18,3 C 15,6 C 68 % 1022,2 hPa 0,0 l/m 0 min 0 min 271 W/m 12,9 km/h (3 Bft) 100,00 %
21.05.2022 13:18 18,3 C 18,3 C 15,6 C 68 % 1022,2 hPa 0,0 l/m 0 min 0 min 230 W/m 16,1 km/h (3 Bft) 100,00 %
21.05.2022 13:20 18,2 C 17,8 C 15,0 C 67 % 1022,1 hPa 0,0 l/m 0 min 0 min 191 W/m 16,1 km/h (3 Bft) 100,00 %
21.05.2022 13:22 18,1 C 17,8 C 15,0 C 68 % 1022,2 hPa 0,0 l/m 0 min 0 min 180 W/m 12,9 km/h (3 Bft) 100,00 %
21.05.2022 13:24 17,9 C 17,2 C 14,4 C 68 % 1022,2 hPa 0,0 l/m 0 min 0 min 182 W/m 16,1 km/h (3 Bft) 100,00 %
21.05.2022 13:26 17,8 C 17,2 C 14,4 C 69 % 1022,2 hPa 0,0 l/m 0 min 0 min 179 W/m 9,7 km/h (2 Bft) 97,87 %
21.05.2022 13:28 17,8 C 17,2 C 14,4 C 69 % 1022,2 hPa 0,0 l/m 0 min 0 min 197 W/m 9,7 km/h (2 Bft) 97,87 %
21.05.2022 13:30 17,7 C 17,2 C 13,9 C 70 % 1022,2 hPa 0,0 l/m 0 min 0 min 237 W/m 12,9 km/h (3 Bft) 97,87 %
21.05.2022 13:32 17,6 C 17,8 C 14,4 C 70 % 1022,2 hPa 0,0 l/m 0 min 0 min 288 W/m 6,4 km/h (2 Bft) 97,87 %
21.05.2022 13:34 17,7 C 17,8 C 15,6 C 69 % 1022,1 hPa 0,0 l/m 2 min 0 min 518 W/m 16,1 km/h (3 Bft) 95,65 %
21.05.2022 13:36 17,8 C 18,9 C 16,7 C 70 % 1022,2 hPa 0,0 l/m 2 min 0 min 684 W/m 12,9 km/h (3 Bft) 95,74 %
21.05.2022 13:38 17,9 C 19,4 C 17,8 C 68 % 1022,1 hPa 0,0 l/m 2 min 0 min 861 W/m 12,9 km/h (3 Bft) 97,87 %
21.05.2022 13:40 18,0 C 20,0 C 18,9 C 68 % 1022,2 hPa 0,0 l/m 2 min 0 min 971 W/m 16,1 km/h (3 Bft) 95,74 %
21.05.2022 13:42 18,2 C 20,0 C 18,9 C 69 % 1022,2 hPa 0,0 l/m 2 min 0 min 926 W/m 12,9 km/h (3 Bft) 95,74 %
21.05.2022 13:44 18,3 C 18,9 C 17,2 C 67 % 1022,2 hPa 0,0 l/m 0 min 0 min 327 W/m 12,9 km/h (3 Bft) 95,74 %
21.05.2022 13:46 18,2 C 18,9 C 16,1 C 67 % 1022,0 hPa 0,0 l/m 0 min 0 min 309 W/m 16,1 km/h (3 Bft) 95,65 %
21.05.2022 13:48 18,2 C 19,4 C 16,7 C 68 % 1022,2 hPa 0,0 l/m 2 min 0 min 436 W/m 12,9 km/h (3 Bft) 95,74 %
21.05.2022 13:50 18,3 C 20,6 C 17,2 C 69 % 1022,2 hPa 0,0 l/m 2 min 0 min 1043 W/m 19,3 km/h (3 Bft) 95,74 %
21.05.2022 13:52 18,6 C 21,1 C 17,8 C 69 % 1022,2 hPa 0,0 l/m 2 min 0 min 1062 W/m 29,0 km/h (5 Bft) 93,62 %
21.05.2022 13:54 18,8 C 21,7 C 17,8 C 69 % 1022,2 hPa 0,0 l/m 2 min 0 min 1081 W/m 6,4 km/h (2 Bft) 93,62 %
21.05.2022 13:56 18,9 C 21,7 C 17,2 C 66 % 1022,2 hPa 0,0 l/m 2 min 0 min 1172 W/m 19,3 km/h (3 Bft) 95,74 %
21.05.2022 13:58 19,1 C 21,7 C 17,2 C 67 % 1022,2 hPa 0,0 l/m 2 min 0 min 1171 W/m 19,3 km/h (3 Bft) 95,65 %
21.05.2022 14:00 19,2 C 21,1 C 16,7 C 66 % 1022,0 hPa 0,0 l/m 2 min 0 min 887 W/m 16,1 km/h (3 Bft) 95,74 %
21.05.2022 14:02 19,2 C 20,6 C 16,7 C 67 % 1022,2 hPa 0,0 l/m 2 min 0 min 504 W/m 12,9 km/h (3 Bft) 95,74 %
21.05.2022 14:04 19,2 C 20,0 C 16,7 C 66 % 1022,1 hPa 0,0 l/m 2 min 0 min 415 W/m 12,9 km/h (3 Bft) 93,62 %
21.05.2022 14:06 19,1 C 19,4 C 16,1 C 65 % 1022,1 hPa 0,0 l/m 2 min 0 min 422 W/m 19,3 km/h (3 Bft) 93,62 %
21.05.2022 14:08 19,0 C 19,4 C 16,1 C 66 % 1022,2 hPa 0,0 l/m 2 min 0 min 450 W/m 12,9 km/h (3 Bft) 97,87 %
21.05.2022 14:10 18,9 C 19,4 C 16,1 C 65 % 1022,1 hPa 0,0 l/m 2 min 0 min 428 W/m 19,3 km/h (3 Bft) 97,83 %
21.05.2022 14:12 18,8 C 19,4 C 15,6 C 64 % 1022,1 hPa 0,0 l/m 2 min 0 min 439 W/m 22,5 km/h (4 Bft) 95,74 %
21.05.2022 14:14 18,8 C 19,4 C 16,1 C 65 % 1022,1 hPa 0,0 l/m 2 min 0 min 439 W/m 16,1 km/h (3 Bft) 95,74 %
21.05.2022 14:16 18,8 C 18,9 C 15,6 C 65 % 1022,1 hPa 0,0 l/m 0 min 0 min 365 W/m 9,7 km/h (2 Bft) 100,00 %
21.05.2022 14:18 18,8 C 18,9 C 15,6 C 66 % 1022,1 hPa 0,0 l/m 0 min 0 min 321 W/m 9,7 km/h (2 Bft) 100,00 %
21.05.2022 14:20 18,8 C 18,9 C 15,6 C 66 % 1022,0 hPa 0,0 l/m 0 min 0 min 301 W/m 6,4 km/h (2 Bft) 100,00 %
21.05.2022 14:22 18,8 C 18,9 C 15,6 C 66 % 1022,0 hPa 0,0 l/m 0 min 0 min 294 W/m 16,1 km/h (3 Bft) 100,00 %
21.05.2022 14:24 18,7 C 18,9 C 15,6 C 66 % 1022,1 hPa 0,0 l/m 0 min 0 min 271 W/m 22,5 km/h (4 Bft) 97,87 %
21.05.2022 14:26 18,6 C 18,9 C 15,0 C 66 % 1022,0 hPa 0,0 l/m 0 min 0 min 274 W/m 6,4 km/h (2 Bft) 100,00 %
21.05.2022 14:28 18,6 C 18,9 C 15,0 C 66 % 1022,0 hPa 0,0 l/m 0 min 0 min 295 W/m 16,1 km/h (3 Bft) 100,00 %
21.05.2022 14:30 18,6 C 18,9 C 15,0 C 66 % 1022,0 hPa 0,0 l/m 0 min 0 min 317 W/m 12,9 km/h (3 Bft) 100,00 %
21.05.2022 14:32 18,6 C 18,9 C 15,0 C 67 % 1022,0 hPa 0,0 l/m 0 min 0 min 313 W/m 12,9 km/h (3 Bft) 100,00 %
21.05.2022 14:34 18,6 C 18,9 C 15,0 C 66 % 1022,1 hPa 0,0 l/m 0 min 0 min 289 W/m 12,9 km/h (3 Bft) 100,00 %
21.05.2022 14:36 18,5 C 18,3 C 15,0 C 66 % 1022,0 hPa 0,0 l/m 0 min 0 min 284 W/m 9,7 km/h (2 Bft) 100,00 %
21.05.2022 14:38 18,5 C 18,3 C 15,0 C 67 % 1021,9 hPa 0,0 l/m 0 min 0 min 297 W/m 12,9 km/h (3 Bft) 100,00 %
21.05.2022 14:40 18,5 C 18,3 C 15,0 C 66 % 1022,0 hPa 0,0 l/m 0 min 0 min 294 W/m 9,7 km/h (2 Bft) 100,00 %
21.05.2022 14:42 18,5 C 18,9 C 15,0 C 67 % 1022,0 hPa 0,0 l/m 0 min 0 min 288 W/m 12,9 km/h (3 Bft) 100,00 %
21.05.2022 14:44 18,4 C 18,3 C 15,0 C 66 % 1021,9 hPa 0,0 l/m 0 min 0 min 282 W/m 12,9 km/h (3 Bft) 100,00 %
21.05.2022 14:46 18,4 C 18,3 C 15,0 C 66 % 1021,9 hPa 0,0 l/m 0 min 0 min 258 W/m 9,7 km/h (2 Bft) 100,00 %
21.05.2022 14:48 18,4 C 18,3 C 15,0 C 67 % 1021,9 hPa 0,0 l/m 0 min 0 min 277 W/m 12,9 km/h (3 Bft) 100,00 %
21.05.2022 14:50 18,4 C 18,9 C 15,0 C 67 % 1021,9 hPa 0,0 l/m 0 min 0 min 344 W/m 12,9 km/h (3 Bft) 97,87 %
21.05.2022 14:52 18,4 C 18,9 C 15,6 C 67 % 1021,9 hPa 0,0 l/m 0 min 0 min 374 W/m 16,1 km/h (3 Bft) 97,87 %
21.05.2022 14:54 18,5 C 18,9 C 15,6 C 65 % 1021,9 hPa 0,0 l/m 2 min 0 min 401 W/m 12,9 km/h (3 Bft) 97,87 %
21.05.2022 14:56 18,6 C 18,9 C 15,6 C 65 % 1021,9 hPa 0,0 l/m 0 min 0 min 365 W/m 12,9 km/h (3 Bft) 100,00 %
21.05.2022 14:58 18,6 C 18,9 C 15,0 C 65 % 1022,0 hPa 0,0 l/m 0 min 0 min 308 W/m 16,1 km/h (3 Bft) 100,00 %
21.05.2022 15:00 18,5 C 18,9 C 15,0 C 66 % 1022,0 hPa 0,0 l/m 0 min 0 min 273 W/m 12,9 km/h (3 Bft) 100,00 %
21.05.2022 15:02 18,5 C 18,9 C 15,0 C 66 % 1021,9 hPa 0,0 l/m 0 min 0 min 281 W/m 12,9 km/h (3 Bft) 100,00 %
21.05.2022 15:04 18,5 C 18,9 C 15,0 C 66 % 1021,9 hPa 0,0 l/m 2 min 0 min 401 W/m 12,9 km/h (3 Bft) 100,00 %
21.05.2022 15:06 18,6 C 19,4 C 15,6 C 67 % 1021,9 hPa 0,0 l/m 2 min 0 min 461 W/m 6,4 km/h (2 Bft) 100,00 %
21.05.2022 15:08 18,6 C 20,0 C 15,6 C 66 % 1021,9 hPa 0,0 l/m 2 min 0 min 503 W/m 12,9 km/h (3 Bft) 100,00 %
21.05.2022 15:10 18,8 C 21,1 C 16,1 C 67 % 1021,9 hPa 0,0 l/m 2 min 0 min 503 W/m 6,4 km/h (2 Bft) 97,83 %
21.05.2022 15:12 19,0 C 21,7 C 16,1 C 66 % 1022,0 hPa 0,0 l/m 2 min 0 min 804 W/m 16,1 km/h (3 Bft) 100,00 %
21.05.2022 15:14 19,2 C 22,2 C 16,1 C 65 % 1021,9 hPa 0,0 l/m 2 min 0 min 916 W/m 16,1 km/h (3 Bft) 100,00 %
21.05.2022 15:16 19,3 C 22,2 C 16,1 C 63 % 1022,0 hPa 0,0 l/m 2 min 0 min 916 W/m 16,1 km/h (3 Bft) 100,00 %
21.05.2022 15:18 19,4 C 21,7 C 16,1 C 63 % 1021,9 hPa 0,0 l/m 2 min 0 min 827 W/m 12,9 km/h (3 Bft) 100,00 %
21.05.2022 15:20 19,6 C 21,7 C 16,1 C 64 % 1021,8 hPa 0,0 l/m 2 min 0 min 716 W/m 12,9 km/h (3 Bft) 100,00 %
21.05.2022 15:22 19,7 C 22,2 C 16,7 C 64 % 1021,9 hPa 0,0 l/m 2 min 0 min 982 W/m 12,9 km/h (3 Bft) 100,00 %
21.05.2022 15:24 19,8 C 21,7 C 16,1 C 63 % 1021,8 hPa 0,0 l/m 2 min 0 min 665 W/m 12,9 km/h (3 Bft) 100,00 %
21.05.2022 15:26 19,8 C 21,1 C 16,1 C 63 % 1021,8 hPa 0,0 l/m 2 min 0 min 532 W/m 9,7 km/h (2 Bft) 97,87 %
21.05.2022 15:28 19,8 C 20,0 C 16,1 C 62 % 1021,9 hPa 0,0 l/m 0 min 0 min 280 W/m 12,9 km/h (3 Bft) 97,87 %
21.05.2022 15:30 19,7 C 20,0 C 16,1 C 62 % 1021,8 hPa 0,0 l/m 0 min 0 min 236 W/m 12,9 km/h (3 Bft) 100,00 %
21.05.2022 15:32 19,7 C 19,4 C 15,6 C 63 % 1021,8 hPa 0,0 l/m 0 min 0 min 238 W/m 9,7 km/h (2 Bft) 97,87 %
21.05.2022 15:34 19,6 C 19,4 C 15,6 C 63 % 1021,8 hPa 0,0 l/m 0 min 0 min 248 W/m 9,7 km/h (2 Bft) 100,00 %
21.05.2022 15:36 19,5 C 20,0 C 15,6 C 65 % 1021,8 hPa 0,0 l/m 0 min 0 min 257 W/m 6,4 km/h (2 Bft) 97,87 %
21.05.2022 15:38 19,5 C 19,4 C 15,6 C 64 % 1021,7 hPa 0,0 l/m 0 min 0 min 272 W/m 25,7 km/h (4 Bft) 97,87 %
21.05.2022 15:40 19,4 C 19,4 C 16,1 C 63 % 1021,7 hPa 0,0 l/m 0 min 0 min 291 W/m 12,9 km/h (3 Bft) 100,00 %
21.05.2022 15:42 19,4 C 19,4 C 15,6 C 63 % 1021,8 hPa 0,0 l/m 0 min 0 min 308 W/m 12,9 km/h (3 Bft) 100,00 %
21.05.2022 15:44 19,3 C 19,4 C 15,6 C 63 % 1021,8 hPa 0,0 l/m 0 min 0 min 329 W/m 16,1 km/h (3 Bft) 100,00 %
21.05.2022 15:46 19,3 C 19,4 C 15,6 C 63 % 1021,7 hPa 0,0 l/m 0 min 0 min 352 W/m 9,7 km/h (2 Bft) 95,65 %
21.05.2022 15:48 19,3 C 20,0 C 15,6 C 63 % 1021,7 hPa 0,0 l/m 2 min 0 min 388 W/m 12,9 km/h (3 Bft) 97,87 %
21.05.2022 15:50 19,3 C 20,0 C 15,6 C 64 % 1021,7 hPa 0,0 l/m 2 min 0 min 442 W/m 16,1 km/h (3 Bft) 93,62 %
21.05.2022 15:52 19,3 C 20,0 C 16,1 C 63 % 1021,7 hPa 0,0 l/m 2 min 0 min 483 W/m 19,3 km/h (3 Bft) 95,74 %
21.05.2022 15:54 19,3 C 20,0 C 16,1 C 63 % 1021,6 hPa 0,0 l/m 2 min 0 min 458 W/m 12,9 km/h (3 Bft) 93,62 %
21.05.2022 15:56 19,4 C 20,6 C 16,1 C 63 % 1021,6 hPa 0,0 l/m 2 min 0 min 468 W/m 12,9 km/h (3 Bft) 93,62 %
21.05.2022 15:58 19,5 C 20,6 C 16,1 C 64 % 1021,6 hPa 0,0 l/m 2 min 0 min 410 W/m 12,9 km/h (3 Bft) 93,48 %
21.05.2022 16:00 19,6 C 20,6 C 16,1 C 63 % 1021,6 hPa 0,0 l/m 2 min 0 min 409 W/m 19,3 km/h (3 Bft) 93,62 %
21.05.2022 16:02 19,6 C 20,6 C 16,1 C 63 % 1021,6 hPa 0,0 l/m 2 min 0 min 418 W/m 6,4 km/h (2 Bft) 89,36 %
21.05.2022 16:04 19,6 C 20,6 C 16,1 C 63 % 1021,6 hPa 0,0 l/m 2 min 0 min 448 W/m 6,4 km/h (2 Bft) 93,62 %
21.05.2022 16:06 19,7 C 20,6 C 16,1 C 63 % 1021,6 hPa 0,0 l/m 2 min 0 min 385 W/m 12,9 km/h (3 Bft) 93,62 %
21.05.2022 16:08 19,7 C 20,6 C 16,1 C 63 % 1021,6 hPa 0,0 l/m 2 min 0 min 410 W/m 9,7 km/h (2 Bft) 93,62 %
21.05.2022 16:10 19,7 C 20,6 C 16,1 C 63 % 1021,6 hPa 0,0 l/m 2 min 0 min 420 W/m 6,4 km/h (2 Bft) 93,48 %
21.05.2022 16:12 19,7 C 21,1 C 16,7 C 63 % 1021,5 hPa 0,0 l/m 2 min 0 min 459 W/m 6,4 km/h (2 Bft) 91,49 %
21.05.2022 16:14 19,8 C 21,7 C 16,7 C 63 % 1021,4 hPa 0,0 l/m 2 min 0 min 589 W/m 12,9 km/h (3 Bft) 93,62 %
21.05.2022 16:16 19,9 C 21,7 C 16,7 C 62 % 1021,5 hPa 0,0 l/m 2 min 0 min 657 W/m 22,5 km/h (4 Bft) 91,49 %
21.05.2022 16:18 19,9 C 21,7 C 16,7 C 62 % 1021,4 hPa 0,0 l/m 2 min 0 min 479 W/m 12,9 km/h (3 Bft) 93,62 %
21.05.2022 16:20 20,0 C 21,1 C 16,7 C 62 % 1021,4 hPa 0,0 l/m 2 min 0 min 379 W/m 16,1 km/h (3 Bft) 93,62 %
21.05.2022 16:22 19,9 C 20,6 C 16,7 C 61 % 1021,4 hPa 0,0 l/m 2 min 0 min 368 W/m 12,9 km/h (3 Bft) 93,48 %
21.05.2022 16:24 19,8 C 20,6 C 16,1 C 60 % 1021,4 hPa 0,0 l/m 2 min 0 min 374 W/m 19,3 km/h (3 Bft) 93,62 %
21.05.2022 16:26 19,8 C 20,6 C 16,1 C 61 % 1021,3 hPa 0,0 l/m 2 min 0 min 374 W/m 6,4 km/h (2 Bft) 95,74 %
21.05.2022 16:28 19,8 C 20,6 C 16,1 C 61 % 1021,3 hPa 0,0 l/m 2 min 0 min 400 W/m 12,9 km/h (3 Bft) 95,74 %
21.05.2022 16:30 19,8 C 20,6 C 16,1 C 61 % 1021,3 hPa 0,0 l/m 2 min 0 min 403 W/m 9,7 km/h (2 Bft) 93,62 %
21.05.2022 16:32 19,7 C 20,6 C 16,1 C 61 % 1021,3 hPa 0,0 l/m 2 min 0 min 341 W/m 12,9 km/h (3 Bft) 95,74 %
21.05.2022 16:34 19,8 C 20,6 C 16,1 C 61 % 1021,3 hPa 0,0 l/m 2 min 0 min 348 W/m 6,4 km/h (2 Bft) 95,65 %
21.05.2022 16:36 19,7 C 20,6 C 16,1 C 61 % 1021,3 hPa 0,0 l/m 2 min 0 min 394 W/m 12,9 km/h (3 Bft) 97,87 %
21.05.2022 16:38 19,7 C 20,6 C 16,1 C 62 % 1021,3 hPa 0,0 l/m 2 min 0 min 371 W/m 6,4 km/h (2 Bft) 95,74 %
21.05.2022 16:40 19,7 C 20,0 C 16,1 C 61 % 1021,3 hPa 0,0 l/m 2 min 0 min 342 W/m 12,9 km/h (3 Bft) 97,87 %
21.05.2022 16:42 19,7 C 20,0 C 16,1 C 61 % 1021,2 hPa 0,0 l/m 2 min 0 min 356 W/m 16,1 km/h (3 Bft) 97,87 %
21.05.2022 16:44 19,7 C 20,0 C 16,1 C 61 % 1021,2 hPa 0,0 l/m 2 min 0 min 354 W/m 12,9 km/h (3 Bft) 97,83 %
21.05.2022 16:46 19,7 C 20,0 C 16,1 C 61 % 1021,2 hPa 0,0 l/m 2 min 0 min 320 W/m 12,9 km/h (3 Bft) 97,87 %
21.05.2022 16:48 19,7 C 20,0 C 16,1 C 61 % 1021,3 hPa 0,0 l/m 0 min 0 min 273 W/m 12,9 km/h (3 Bft) 93,62 %
21.05.2022 16:50 19,7 C 20,0 C 16,1 C 61 % 1021,3 hPa 0,0 l/m 0 min 0 min 267 W/m 9,7 km/h (2 Bft) 97,87 %
21.05.2022 16:52 19,7 C 20,0 C 16,1 C 62 % 1021,3 hPa 0,0 l/m 0 min 0 min 280 W/m 9,7 km/h (2 Bft) 100,00 %
21.05.2022 16:54 19,7 C 20,0 C 16,1 C 62 % 1021,3 hPa 0,0 l/m 2 min 0 min 351 W/m 16,1 km/h (3 Bft) 100,00 %
21.05.2022 16:56 19,6 C 20,0 C 16,1 C 62 % 1021,3 hPa 0,0 l/m 2 min 0 min 363 W/m 12,9 km/h (3 Bft) 100,00 %
21.05.2022 16:58 19,6 C 20,0 C 16,1 C 60 % 1021,3 hPa 0,0 l/m 2 min 0 min 413 W/m 12,9 km/h (3 Bft) 100,00 %
21.05.2022 17:00 19,6 C 20,6 C 16,1 C 62 % 1021,3 hPa 0,0 l/m 2 min 0 min 484 W/m 16,1 km/h (3 Bft) 100,00 %
21.05.2022 17:02 19,7 C 20,6 C 16,1 C 62 % 1021,3 hPa 0,0 l/m 2 min 0 min 453 W/m 9,7 km/h (2 Bft) 100,00 %
21.05.2022 17:04 19,7 C 20,6 C 16,1 C 62 % 1021,2 hPa 0,0 l/m 2 min 0 min 345 W/m 12,9 km/h (3 Bft) 100,00 %
21.05.2022 17:06 19,7 C 20,6 C 16,1 C 62 % 1021,2 hPa 0,0 l/m 2 min 0 min 364 W/m 12,9 km/h (3 Bft) 100,00 %
21.05.2022 17:08 19,7 C 20,6 C 16,1 C 61 % 1021,2 hPa 0,0 l/m 2 min 0 min 388 W/m 16,1 km/h (3 Bft) 100,00 %
21.05.2022 17:10 19,7 C 21,1 C 16,1 C 61 % 1021,2 hPa 0,0 l/m 2 min 0 min 381 W/m 12,9 km/h (3 Bft) 100,00 %
21.05.2022 17:12 19,7 C 22,2 C 16,1 C 63 % 1021,2 hPa 0,0 l/m 2 min 0 min 567 W/m 12,9 km/h (3 Bft) 97,87 %
21.05.2022 17:14 19,7 C 22,8 C 16,1 C 62 % 1021,1 hPa 0,0 l/m 2 min 0 min 735 W/m 9,7 km/h (2 Bft) 100,00 %
21.05.2022 17:16 19,9 C 23,3 C 16,7 C 63 % 1021,1 hPa 0,0 l/m 2 min 0 min 644 W/m 12,9 km/h (3 Bft) 100,00 %
21.05.2022 17:18 20,0 C 23,3 C 16,7 C 61 % 1021,0 hPa 0,0 l/m 2 min 0 min 662 W/m 9,7 km/h (2 Bft) 100,00 %
21.05.2022 17:20 20,1 C 23,3 C 16,7 C 62 % 1021,1 hPa 0,0 l/m 2 min 0 min 634 W/m 9,7 km/h (2 Bft) 100,00 %
21.05.2022 17:22 20,2 C 23,9 C 16,7 C 61 % 1021,0 hPa 0,0 l/m 2 min 0 min 589 W/m 12,9 km/h (3 Bft) 100,00 %
21.05.2022 17:24 20,3 C 23,9 C 16,7 C 61 % 1021,0 hPa 0,0 l/m 2 min 0 min 532 W/m 12,9 km/h (3 Bft) 100,00 %
21.05.2022 17:26 20,4 C 23,3 C 16,7 C 60 % 1021,0 hPa 0,0 l/m 2 min 0 min 480 W/m 12,9 km/h (3 Bft) 100,00 %
21.05.2022 17:28 20,3 C 22,2 C 16,7 C 60 % 1021,0 hPa 0,0 l/m 2 min 0 min 383 W/m 6,4 km/h (2 Bft) 100,00 %
21.05.2022 17:30 20,3 C 22,8 C 16,7 C 60 % 1021,0 hPa 0,0 l/m 2 min 0 min 369 W/m 6,4 km/h (2 Bft) 100,00 %
21.05.2022 17:32 20,3 C 22,2 C 16,7 C 59 % 1021,0 hPa 0,0 l/m 2 min 0 min 359 W/m 12,9 km/h (3 Bft) 100,00 %
21.05.2022 17:34 20,3 C 22,2 C 16,7 C 61 % 1021,0 hPa 0,0 l/m 2 min 0 min 360 W/m 6,4 km/h (2 Bft) 100,00 %
21.05.2022 17:36 20,3 C 21,7 C 16,7 C 61 % 1020,9 hPa 0,0 l/m 2 min 0 min 312 W/m 6,4 km/h (2 Bft) 97,87 %
21.05.2022 17:38 20,3 C 21,7 C 16,7 C 61 % 1021,0 hPa 0,0 l/m 2 min 0 min 301 W/m 6,4 km/h (2 Bft) 100,00 %
21.05.2022 17:40 20,3 C 21,1 C 16,7 C 62 % 1021,0 hPa 0,0 l/m 2 min 0 min 294 W/m 6,4 km/h (2 Bft) 100,00 %
21.05.2022 17:42 20,2 C 21,1 C 16,7 C 62 % 1020,9 hPa 0,0 l/m 2 min 0 min 267 W/m 16,1 km/h (3 Bft) 100,00 %
21.05.2022 17:44 20,2 C 20,6 C 16,1 C 62 % 1020,9 hPa 0,0 l/m 0 min 0 min 245 W/m 6,4 km/h (2 Bft) 100,00 %
21.05.2022 17:46 20,1 C 20,0 C 16,1 C 61 % 1020,8 hPa 0,0 l/m 0 min 0 min 233 W/m 6,4 km/h (2 Bft) 100,00 %
21.05.2022 17:48 20,1 C 20,0 C 16,1 C 62 % 1020,8 hPa 0,0 l/m 0 min 0 min 226 W/m 9,7 km/h (2 Bft) 97,87 %
21.05.2022 17:50 20,1 C 20,0 C 16,1 C 62 % 1020,8 hPa 0,0 l/m 0 min 0 min 211 W/m 12,9 km/h (3 Bft) 100,00 %
21.05.2022 17:52 19,9 C 20,0 C 16,1 C 61 % 1020,8 hPa 0,0 l/m 0 min 0 min 208 W/m 6,4 km/h (2 Bft) 100,00 %
21.05.2022 17:54 19,9 C 19,4 C 16,1 C 61 % 1020,7 hPa 0,0 l/m 0 min 0 min 212 W/m 12,9 km/h (3 Bft) 100,00 %
21.05.2022 17:56 19,8 C 19,4 C 16,1 C 62 % 1020,8 hPa 0,0 l/m 0 min 0 min 204 W/m 6,4 km/h (2 Bft) 100,00 %
21.05.2022 17:58 19,7 C 19,4 C 16,1 C 62 % 1020,8 hPa 0,0 l/m 0 min 0 min 198 W/m 6,4 km/h (2 Bft) 97,87 %
21.05.2022 18:00 19,6 C 19,4 C 15,6 C 62 % 1020,7 hPa 0,0 l/m 0 min 0 min 215 W/m 6,4 km/h (2 Bft) 97,87 %
21.05.2022 18:02 19,6 C 19,4 C 15,6 C 63 % 1020,8 hPa 0,0 l/m 2 min 0 min 255 W/m 6,4 km/h (2 Bft) 97,87 %
21.05.2022 18:04 19,6 C 19,4 C 16,1 C 63 % 1020,7 hPa 0,0 l/m 2 min 0 min 265 W/m 6,4 km/h (2 Bft) 97,87 %
21.05.2022 18:08 19,7 C 20,0 C 16,1 C 63 % 1020,6 hPa 0,0 l/m 4 min 0 min 269 W/m 6,4 km/h (2 Bft) 96,81 %
21.05.2022 18:10 19,7 C 20,0 C 16,1 C 62 % 1020,6 hPa 0,0 l/m 2 min 0 min 274 W/m 6,4 km/h (2 Bft) 97,87 %
21.05.2022 18:12 19,7 C 20,0 C 16,1 C 62 % 1020,6 hPa 0,0 l/m 2 min 0 min 261 W/m 6,4 km/h (2 Bft) 95,74 %
21.05.2022 18:14 19,7 C 20,0 C 16,1 C 62 % 1020,6 hPa 0,0 l/m 2 min 0 min 230 W/m 9,7 km/h (2 Bft) 97,87 %
21.05.2022 18:16 19,7 C 20,0 C 15,6 C 62 % 1020,6 hPa 0,0 l/m 0 min 0 min 219 W/m 9,7 km/h (2 Bft) 97,83 %
21.05.2022 18:18 19,7 C 20,0 C 15,6 C 62 % 1020,6 hPa 0,0 l/m 0 min 0 min 216 W/m 12,9 km/h (3 Bft) 97,87 %
21.05.2022 18:20 19,6 C 20,0 C 15,6 C 62 % 1020,5 hPa 0,0 l/m 0 min 0 min 211 W/m 9,7 km/h (2 Bft) 97,87 %
21.05.2022 18:22 19,6 C 20,0 C 15,6 C 63 % 1020,5 hPa 0,0 l/m 0 min 0 min 209 W/m 6,4 km/h (2 Bft) 95,74 %
21.05.2022 18:24 19,6 C 19,4 C 15,6 C 63 % 1020,5 hPa 0,0 l/m 0 min 0 min 204 W/m 9,7 km/h (2 Bft) 95,74 %
21.05.2022 18:26 19,6 C 19,4 C 15,6 C 62 % 1020,5 hPa 0,0 l/m 0 min 0 min 207 W/m 3,2 km/h (1 Bft) 95,74 %
21.05.2022 18:28 19,6 C 19,4 C 15,6 C 62 % 1020,6 hPa 0,0 l/m 2 min 0 min 228 W/m 6,4 km/h (2 Bft) 95,65 %
21.05.2022 18:30 19,6 C 20,0 C 15,6 C 63 % 1020,5 hPa 0,0 l/m 2 min 0 min 238 W/m 9,7 km/h (2 Bft) 91,49 %
21.05.2022 18:32 19,7 C 20,0 C 16,1 C 62 % 1020,5 hPa 0,0 l/m 2 min 0 min 225 W/m 3,2 km/h (1 Bft) 95,74 %
21.05.2022 18:34 19,7 C 20,0 C 16,1 C 62 % 1020,4 hPa 0,0 l/m 0 min 0 min 198 W/m 12,9 km/h (3 Bft) 95,74 %
21.05.2022 18:36 19,8 C 20,0 C 16,1 C 62 % 1020,4 hPa 0,0 l/m 0 min 0 min 190 W/m 6,4 km/h (2 Bft) 97,87 %
21.05.2022 18:38 19,8 C 20,0 C 16,1 C 61 % 1020,4 hPa 0,0 l/m 2 min 0 min 196 W/m 6,4 km/h (2 Bft) 97,87 %
21.05.2022 18:40 19,8 C 20,0 C 16,1 C 61 % 1020,4 hPa 0,0 l/m 0 min 0 min 192 W/m 6,4 km/h (2 Bft) 97,83 %
21.05.2022 18:42 19,8 C 20,0 C 16,1 C 60 % 1020,4 hPa 0,0 l/m 0 min 0 min 183 W/m 9,7 km/h (2 Bft) 97,87 %
21.05.2022 18:44 19,8 C 20,0 C 16,1 C 61 % 1020,4 hPa 0,0 l/m 0 min 0 min 174 W/m 6,4 km/h (2 Bft) 97,87 %
21.05.2022 18:46 19,9 C 20,0 C 15,6 C 61 % 1020,4 hPa 0,0 l/m 0 min 0 min 178 W/m 3,2 km/h (1 Bft) 97,87 %
21.05.2022 18:48 19,9 C 20,0 C 15,6 C 62 % 1020,4 hPa 0,0 l/m 0 min 0 min 180 W/m 6,4 km/h (2 Bft) 93,62 %
21.05.2022 18:50 19,9 C 20,0 C 15,6 C 62 % 1020,4 hPa 0,0 l/m 2 min 0 min 188 W/m 6,4 km/h (2 Bft) 97,87 %
21.05.2022 18:52 19,9 C 20,0 C 15,6 C 62 % 1020,3 hPa 0,0 l/m 2 min 0 min 195 W/m 6,4 km/h (2 Bft) 98,11 %
21.05.2022 18:54 19,9 C 20,0 C 15,6 C 62 % 1020,3 hPa 0,0 l/m 2 min 0 min 183 W/m 3,2 km/h (1 Bft) 94,74 %
21.05.2022 18:56 19,9 C 20,0 C 15,6 C 62 % 1020,3 hPa 0,0 l/m 2 min 0 min 176 W/m 9,7 km/h (2 Bft) 97,87 %
21.05.2022 18:58 19,8 C 20,0 C 15,6 C 62 % 1020,3 hPa 0,0 l/m 2 min 0 min 176 W/m 6,4 km/h (2 Bft) 97,83 %
21.05.2022 19:00 19,8 C 20,0 C 15,6 C 62 % 1020,2 hPa 0,0 l/m 2 min 0 min 180 W/m 6,4 km/h (2 Bft) 97,87 %
21.05.2022 19:02 19,8 C 20,0 C 15,6 C 62 % 1020,2 hPa 0,0 l/m 2 min 0 min 178 W/m 3,2 km/h (1 Bft) 95,74 %
21.05.2022 19:04 19,8 C 20,0 C 15,6 C 63 % 1020,2 hPa 0,0 l/m 2 min 0 min 178 W/m 3,2 km/h (1 Bft) 97,87 %
21.05.2022 19:06 19,8 C 20,0 C 15,6 C 62 % 1020,2 hPa 0,0 l/m 2 min 0 min 173 W/m 12,9 km/h (3 Bft) 100,00 %
21.05.2022 19:08 19,8 C 20,0 C 15,6 C 62 % 1020,1 hPa 0,0 l/m 2 min 0 min 167 W/m 3,2 km/h (1 Bft) 100,00 %
21.05.2022 19:10 19,8 C 20,0 C 15,6 C 62 % 1020,1 hPa 0,0 l/m 2 min 0 min 170 W/m 12,9 km/h (3 Bft) 100,00 %
21.05.2022 19:12 19,8 C 20,0 C 15,6 C 62 % 1020,1 hPa 0,0 l/m 2 min 0 min 169 W/m 6,4 km/h (2 Bft) 100,00 %
21.05.2022 19:14 19,8 C 20,0 C 15,6 C 62 % 1020,1 hPa 0,0 l/m 2 min 0 min 159 W/m 6,4 km/h (2 Bft) 100,00 %
21.05.2022 19:16 19,8 C 20,0 C 15,6 C 62 % 1020,1 hPa 0,0 l/m 0 min 0 min 141 W/m 9,7 km/h (2 Bft) 97,67 %
21.05.2022 19:18 19,8 C 19,4 C 15,6 C 62 % 1020,1 hPa 0,0 l/m 0 min 0 min 121 W/m 3,2 km/h (1 Bft) 95,65 %
21.05.2022 19:20 19,8 C 19,4 C 15,6 C 62 % 1020,1 hPa 0,0 l/m 0 min 0 min 109 W/m 6,4 km/h (2 Bft) 95,74 %
21.05.2022 19:22 19,7 C 19,4 C 15,6 C 62 % 1020,1 hPa 0,0 l/m 0 min 0 min 98 W/m 3,2 km/h (1 Bft) 97,87 %
21.05.2022 19:24 19,7 C 18,9 C 15,0 C 63 % 1020,1 hPa 0,0 l/m 0 min 0 min 94 W/m 6,4 km/h (2 Bft) 97,87 %
21.05.2022 19:26 19,7 C 18,9 C 15,0 C 63 % 1020,1 hPa 0,0 l/m 0 min 0 min 97 W/m 3,2 km/h (1 Bft) 95,74 %
21.05.2022 19:28 19,7 C 18,9 C 15,0 C 63 % 1020,0 hPa 0,0 l/m 0 min 0 min 105 W/m 3,2 km/h (1 Bft) 97,87 %
21.05.2022 19:30 19,6 C 18,9 C 15,0 C 63 % 1020,0 hPa 0,0 l/m 0 min 0 min 111 W/m 3,2 km/h (1 Bft) 97,83 %
21.05.2022 19:32 19,6 C 18,9 C 15,0 C 63 % 1020,0 hPa 0,0 l/m 0 min 0 min 119 W/m 6,4 km/h (2 Bft) 98,00 %
21.05.2022 19:34 19,6 C 18,9 C 15,0 C 63 % 1020,0 hPa 0,0 l/m 0 min 0 min 118 W/m 3,2 km/h (1 Bft) 95,74 %
21.05.2022 19:36 19,6 C 18,9 C 15,0 C 63 % 1020,0 hPa 0,0 l/m 0 min 0 min 107 W/m 6,4 km/h (2 Bft) 97,87 %
21.05.2022 19:38 19,6 C 18,9 C 15,0 C 63 % 1020,0 hPa 0,0 l/m 0 min 0 min 94 W/m 3,2 km/h (1 Bft) 97,87 %
21.05.2022 19:40 19,5 C 18,9 C 15,0 C 63 % 1020,0 hPa 0,0 l/m 0 min 0 min 90 W/m 6,4 km/h (2 Bft) 97,87 %
21.05.2022 19:42 19,5 C 18,9 C 15,0 C 63 % 1020,0 hPa 0,0 l/m 0 min 0 min 90 W/m 3,2 km/h (1 Bft) 97,83 %
21.05.2022 19:44 19,4 C 18,9 C 15,0 C 63 % 1019,9 hPa 0,0 l/m 0 min 0 min 91 W/m 3,2 km/h (1 Bft) 97,87 %
21.05.2022 19:46 19,4 C 18,9 C 15,0 C 63 % 1020,0 hPa 0,0 l/m 0 min 0 min 93 W/m 3,2 km/h (1 Bft) 95,74 %
21.05.2022 19:48 19,4 C 18,9 C 15,0 C 63 % 1020,0 hPa 0,0 l/m 0 min 0 min 94 W/m 0,0 km/h (0 Bft) 97,87 %
21.05.2022 19:50 19,4 C 18,9 C 15,0 C 63 % 1020,0 hPa 0,0 l/m 0 min 0 min 99 W/m 3,2 km/h (1 Bft) 95,74 %
21.05.2022 19:52 19,4 C 18,9 C 15,0 C 63 % 1020,0 hPa 0,0 l/m 0 min 0 min 104 W/m 3,2 km/h (1 Bft) 97,83 %
21.05.2022 19:54 19,3 C 18,9 C 15,0 C 63 % 1020,0 hPa 0,0 l/m 2 min 0 min 103 W/m 3,2 km/h (1 Bft) 97,87 %
21.05.2022 19:56 19,3 C 18,9 C 15,0 C 64 % 1020,0 hPa 0,0 l/m 2 min 0 min 102 W/m 3,2 km/h (1 Bft) 97,87 %
21.05.2022 19:58 19,3 C 18,9 C 15,0 C 64 % 1020,0 hPa 0,0 l/m 2 min 0 min 98 W/m 3,2 km/h (1 Bft) 93,62 %
21.05.2022 20:00 19,3 C 18,9 C 15,0 C 63 % 1020,0 hPa 0,0 l/m 0 min 0 min 94 W/m 3,2 km/h (1 Bft) 95,74 %
21.05.2022 20:02 19,3 C 18,9 C 14,4 C 64 % 1020,0 hPa 0,0 l/m 0 min 0 min 86 W/m 3,2 km/h (1 Bft) 97,87 %
21.05.2022 20:04 19,2 C 18,9 C 14,4 C 64 % 1020,0 hPa 0,0 l/m 0 min 0 min 77 W/m 3,2 km/h (1 Bft) 93,62 %
21.05.2022 20:06 19,2 C 18,9 C 14,4 C 65 % 1020,1 hPa 0,0 l/m 0 min 0 min 66 W/m 3,2 km/h (1 Bft) 95,65 %
21.05.2022 20:08 19,3 C 18,3 C 14,4 C 65 % 1020,0 hPa 0,0 l/m 0 min 0 min 60 W/m 3,2 km/h (1 Bft) 97,87 %
21.05.2022 20:10 19,2 C 18,3 C 14,4 C 65 % 1020,0 hPa 0,0 l/m 0 min 0 min 53 W/m 3,2 km/h (1 Bft) 97,87 %
21.05.2022 20:12 19,2 C 18,3 C 14,4 C 65 % 1020,1 hPa 0,0 l/m 0 min 0 min 50 W/m 0,0 km/h (0 Bft) 97,87 %
21.05.2022 20:14 19,2 C 18,3 C 14,4 C 65 % 1020,1 hPa 0,0 l/m 0 min 0 min 47 W/m 3,2 km/h (1 Bft) 97,87 %
21.05.2022 20:16 19,2 C 18,3 C 14,4 C 64 % 1020,1 hPa 0,0 l/m 0 min 0 min 47 W/m 0,0 km/h (0 Bft) 97,83 %
21.05.2022 20:18 19,1 C 18,3 C 14,4 C 64 % 1020,1 hPa 0,0 l/m 0 min 0 min 49 W/m 3,2 km/h (1 Bft) 97,87 %
21.05.2022 20:20 19,1 C 18,3 C 14,4 C 64 % 1020,1 hPa 0,0 l/m 0 min 0 min 51 W/m 3,2 km/h (1 Bft) 95,74 %
21.05.2022 20:22 19,1 C 18,3 C 14,4 C 64 % 1020,1 hPa 0,0 l/m 0 min 0 min 54 W/m 3,2 km/h (1 Bft) 95,74 %
21.05.2022 20:24 19,0 C 18,3 C 14,4 C 65 % 1020,1 hPa 0,0 l/m 0 min 0 min 59 W/m 3,2 km/h (1 Bft) 97,87 %
21.05.2022 20:26 19,0 C 18,3 C 14,4 C 66 % 1020,1 hPa 0,0 l/m 2 min 0 min 64 W/m 3,2 km/h (1 Bft) 97,87 %
21.05.2022 20:28 18,9 C 18,3 C 14,4 C 66 % 1020,1 hPa 0,0 l/m 2 min 0 min 68 W/m 6,4 km/h (2 Bft) 97,87 %
21.05.2022 20:30 18,9 C 18,3 C 14,4 C 66 % 1020,1 hPa 0,0 l/m 2 min 0 min 69 W/m 3,2 km/h (1 Bft) 97,83 %
21.05.2022 20:32 18,9 C 18,3 C 14,4 C 66 % 1020,1 hPa 0,0 l/m 2 min 0 min 68 W/m 3,2 km/h (1 Bft) 95,74 %
21.05.2022 20:34 18,9 C 18,3 C 14,4 C 67 % 1020,1 hPa 0,0 l/m 2 min 0 min 64 W/m 3,2 km/h (1 Bft) 97,87 %
21.05.2022 20:36 18,9 C 18,3 C 14,4 C 67 % 1020,1 hPa 0,0 l/m 2 min 0 min 60 W/m 3,2 km/h (1 Bft) 100,00 %
21.05.2022 20:38 18,9 C 18,3 C 14,4 C 67 % 1020,1 hPa 0,0 l/m 2 min 0 min 52 W/m 3,2 km/h (1 Bft) 100,00 %
21.05.2022 20:40 18,9 C 18,3 C 14,4 C 67 % 1020,1 hPa 0,0 l/m 0 min 0 min 44 W/m 3,2 km/h (1 Bft) 100,00 %
21.05.2022 20:42 18,8 C 17,8 C 14,4 C 67 % 1020,1 hPa 0,0 l/m 0 min 0 min 39 W/m 0,0 km/h (0 Bft) 100,00 %
21.05.2022 20:44 18,8 C 17,8 C 13,9 C 68 % 1020,1 hPa 0,0 l/m 0 min 0 min 34 W/m 0,0 km/h (0 Bft) 97,87 %
21.05.2022 20:46 18,8 C 17,8 C 13,9 C 67 % 1020,1 hPa 0,0 l/m 0 min 0 min 34 W/m 3,2 km/h (1 Bft) 100,00 %
21.05.2022 20:48 18,8 C 17,8 C 13,9 C 67 % 1020,1 hPa 0,0 l/m 0 min 0 min 35 W/m 0,0 km/h (0 Bft) 100,00 %
21.05.2022 20:50 18,7 C 17,8 C 13,9 C 68 % 1020,1 hPa 0,0 l/m 2 min 0 min 35 W/m 3,2 km/h (1 Bft) 100,00 %
21.05.2022 20:52 18,7 C 17,8 C 13,9 C 68 % 1020,1 hPa 0,0 l/m 2 min 0 min 33 W/m 0,0 km/h (0 Bft) 100,00 %
21.05.2022 20:54 18,7 C 17,8 C 13,9 C 68 % 1020,1 hPa 0,0 l/m 0 min 0 min 29 W/m 0,0 km/h (0 Bft) 97,87 %
21.05.2022 20:56 18,7 C 17,2 C 13,9 C 68 % 1020,1 hPa 0,0 l/m 0 min 0 min 25 W/m 3,2 km/h (1 Bft) 100,00 %
21.05.2022 20:58 18,7 C 17,2 C 13,9 C 68 % 1020,0 hPa 0,0 l/m 0 min 0 min 21 W/m 0,0 km/h (0 Bft) 100,00 %
21.05.2022 21:00 18,6 C 17,2 C 13,9 C 68 % 1020,1 hPa 0,0 l/m 0 min 0 min 19 W/m 3,2 km/h (1 Bft) 95,74 %
21.05.2022 21:02 18,6 C 17,2 C 13,3 C 68 % 1020,2 hPa 0,0 l/m 0 min 0 min 18 W/m 3,2 km/h (1 Bft) 97,87 %
21.05.2022 21:04 18,6 C 17,2 C 13,3 C 68 % 1020,1 hPa 0,0 l/m 0 min 0 min 18 W/m 3,2 km/h (1 Bft) 95,65 %
21.05.2022 21:06 18,5 C 17,2 C 13,3 C 68 % 1020,1 hPa 0,0 l/m 0 min 0 min 18 W/m 3,2 km/h (1 Bft) 97,87 %
21.05.2022 21:08 18,4 C 17,2 C 13,3 C 68 % 1020,1 hPa 0,0 l/m 0 min 0 min 18 W/m 0,0 km/h (0 Bft) 95,74 %
21.05.2022 21:10 18,3 C 17,2 C 13,3 C 68 % 1020,1 hPa 0,0 l/m 0 min 0 min 16 W/m 6,4 km/h (2 Bft) 95,74 %
21.05.2022 21:12 18,3 C 17,2 C 13,3 C 69 % 1020,0 hPa 0,0 l/m 0 min 0 min 15 W/m 0,0 km/h (0 Bft) 97,87 %
21.05.2022 21:14 18,3 C 16,7 C 13,3 C 69 % 1020,0 hPa 0,0 l/m 0 min 0 min 13 W/m 0,0 km/h (0 Bft) 95,74 %
21.05.2022 21:16 18,2 C 16,7 C 13,3 C 69 % 1020,0 hPa 0,0 l/m 0 min 0 min 11 W/m 3,2 km/h (1 Bft) 97,87 %
21.05.2022 21:18 18,2 C 16,7 C 13,3 C 70 % 1020,0 hPa 0,0 l/m 0 min 0 min 11 W/m 3,2 km/h (1 Bft) 95,65 %
21.05.2022 21:20 18,2 C 16,7 C 13,3 C 70 % 1020,0 hPa 0,0 l/m 0 min 0 min 9 W/m 3,2 km/h (1 Bft) 97,87 %
21.05.2022 21:22 18,1 C 16,7 C 12,8 C 70 % 1020,0 hPa 0,0 l/m 0 min 0 min 9 W/m 0,0 km/h (0 Bft) 97,87 %
21.05.2022 21:24 18,1 C 16,7 C 12,8 C 71 % 1020,1 hPa 0,0 l/m 0 min 0 min 7 W/m 3,2 km/h (1 Bft) 95,74 %
21.05.2022 21:26 18,1 C 16,7 C 12,8 C 71 % 1020,0 hPa 0,0 l/m 0 min 0 min 7 W/m 0,0 km/h (0 Bft) 97,87 %
21.05.2022 21:28 18,1 C 16,1 C 12,8 C 71 % 1020,0 hPa 0,0 l/m 0 min 0 min 5 W/m 0,0 km/h (0 Bft) 97,83 %
21.05.2022 21:30 18,0 C 16,1 C 12,8 C 71 % 1019,9 hPa 0,0 l/m 0 min 0 min 5 W/m 3,2 km/h (1 Bft) 97,87 %
21.05.2022 21:32 17,9 C 16,1 C 12,8 C 71 % 1020,0 hPa 0,0 l/m 0 min 0 min 5 W/m 0,0 km/h (0 Bft) 97,87 %
21.05.2022 21:34 17,8 C 16,1 C 12,8 C 71 % 1020,0 hPa 0,0 l/m 0 min 0 min 1 W/m 3,2 km/h (1 Bft) 97,87 %
21.05.2022 21:36 17,8 C 16,1 C 12,8 C 72 % 1020,0 hPa 0,0 l/m 0 min 0 min 0 W/m 0,0 km/h (0 Bft) 97,87 %
21.05.2022 21:38 17,7 C 16,1 C 12,2 C 72 % 1020,0 hPa 0,0 l/m 0 min 0 min 0 W/m 0,0 km/h (0 Bft) 97,87 %
21.05.2022 21:40 17,7 C 15,6 C 12,2 C 72 % 1020,1 hPa 0,0 l/m 0 min 0 min 0 W/m 0,0 km/h (0 Bft) 97,87 %
21.05.2022 21:42 17,7 C 15,6 C 12,2 C 72 % 1020,1 hPa 0,0 l/m 0 min 0 min 0 W/m 0,0 km/h (0 Bft) 93,62 %
21.05.2022 21:44 17,6 C 15,6 C 12,2 C 73 % 1020,0 hPa 0,0 l/m 0 min 0 min 0 W/m 0,0 km/h (0 Bft) 95,74 %
21.05.2022 21:46 17,6 C 15,6 C 11,7 C 73 % 1020,1 hPa 0,0 l/m 0 min 0 min 0 W/m 0,0 km/h (0 Bft) 97,67 %
21.05.2022 21:48 17,6 C 15,6 C 11,7 C 73 % 1020,1 hPa 0,0 l/m 0 min 0 min 0 W/m 0,0 km/h (0 Bft) 97,87 %
21.05.2022 21:50 17,6 C 15,0 C 11,7 C 74 % 1020,2 hPa 0,0 l/m 0 min 0 min 0 W/m 0,0 km/h (0 Bft) 97,87 %
21.05.2022 21:52 17,5 C 15,0 C 11,7 C 75 % 1020,1 hPa 0,0 l/m 0 min 0 min 0 W/m 0,0 km/h (0 Bft) 97,87 %
21.05.2022 21:54 17,4 C 15,0 C 11,7 C 75 % 1020,3 hPa 0,0 l/m 0 min 0 min 0 W/m 0,0 km/h (0 Bft) 100,00 %
21.05.2022 21:56 17,4 C 15,0 C 11,7 C 75 % 1020,3 hPa 0,0 l/m 0 min 0 min 0 W/m 0,0 km/h (0 Bft) 97,87 %
21.05.2022 21:58 17,3 C 15,0 C 11,7 C 75 % 1020,3 hPa 0,0 l/m 0 min 0 min 0 W/m 0,0 km/h (0 Bft) 97,87 %
21.05.2022 22:00 17,3 C 15,0 C 11,1 C 75 % 1020,3 hPa 0,0 l/m 0 min 0 min 0 W/m 0,0 km/h (0 Bft) 95,74 %
21.05.2022 22:02 17,2 C 15,0 C 11,1 C 76 % 1020,3 hPa 0,0 l/m 0 min 0 min 0 W/m 0,0 km/h (0 Bft) 97,87 %
21.05.2022 22:04 17,2 C 14,4 C 11,1 C 76 % 1020,3 hPa 0,0 l/m 0 min 0 min 0 W/m 0,0 km/h (0 Bft) 97,87 %
21.05.2022 22:06 17,1 C 14,4 C 11,1 C 76 % 1020,3 hPa 0,0 l/m 0 min 0 min 0 W/m 0,0 km/h (0 Bft) 95,74 %
21.05.2022 22:08 17,0 C 14,4 C 11,1 C 76 % 1020,3 hPa 0,0 l/m 0 min 0 min 0 W/m 0,0 km/h (0 Bft) 95,74 %
21.05.2022 22:10 16,9 C 14,4 C 11,1 C 76 % 1020,3 hPa 0,0 l/m 0 min 0 min 0 W/m 0,0 km/h (0 Bft) 95,74 %
21.05.2022 22:12 16,8 C 14,4 C 11,1 C 76 % 1020,3 hPa 0,0 l/m 0 min 0 min 0 W/m 3,2 km/h (1 Bft) 95,74 %
21.05.2022 22:14 16,7 C 14,4 C 11,1 C 76 % 1020,2 hPa 0,0 l/m 0 min 0 min 0 W/m 3,2 km/h (1 Bft) 95,65 %
21.05.2022 22:16 16,6 C 14,4 C 11,1 C 76 % 1020,2 hPa 0,0 l/m 0 min 0 min 0 W/m 3,2 km/h (1 Bft) 95,74 %
21.05.2022 22:18 16,6 C 14,4 C 11,1 C 76 % 1020,3 hPa 0,0 l/m 0 min 0 min 0 W/m 0,0 km/h (0 Bft) 95,74 %
21.05.2022 22:20 16,4 C 14,4 C 11,1 C 76 % 1020,3 hPa 0,0 l/m 0 min 0 min 0 W/m 3,2 km/h (1 Bft) 95,74 %
21.05.2022 22:22 16,4 C 14,4 C 11,1 C 76 % 1020,3 hPa 0,0 l/m 0 min 0 min 0 W/m 3,2 km/h (1 Bft) 95,74 %
21.05.2022 22:24 16,3 C 14,4 C 11,1 C 76 % 1020,2 hPa 0,0 l/m 0 min 0 min 0 W/m 0,0 km/h (0 Bft) 95,74 %
21.05.2022 22:26 16,3 C 14,4 C 11,1 C 77 % 1020,3 hPa 0,0 l/m 0 min 0 min 0 W/m 0,0 km/h (0 Bft) 95,65 %
21.05.2022 22:28 16,3 C 14,4 C 11,1 C 77 % 1020,3 hPa 0,0 l/m 0 min 0 min 0 W/m 0,0 km/h (0 Bft) 97,87 %
21.05.2022 22:30 16,2 C 14,4 C 11,1 C 77 % 1020,3 hPa 0,0 l/m 0 min 0 min 0 W/m 0,0 km/h (0 Bft) 95,74 %
21.05.2022 22:32 16,2 C 14,4 C 11,1 C 77 % 1020,3 hPa 0,0 l/m 0 min 0 min 0 W/m 3,2 km/h (1 Bft) 97,87 %
21.05.2022 22:34 16,1 C 14,4 C 11,1 C 77 % 1020,3 hPa 0,0 l/m 0 min 0 min 0 W/m 0,0 km/h (0 Bft) 97,87 %
21.05.2022 22:36 16,1 C 14,4 C 11,1 C 77 % 1020,3 hPa 0,0 l/m 0 min 0 min 0 W/m 0,0 km/h (0 Bft) 97,87 %
21.05.2022 22:38 16,0 C 14,4 C 10,6 C 77 % 1020,3 hPa 0,0 l/m 0 min 0 min 0 W/m 0,0 km/h (0 Bft) 97,83 %
21.05.2022 22:40 15,9 C 14,4 C 10,6 C 77 % 1020,3 hPa 0,0 l/m 0 min 0 min 0 W/m 0,0 km/h (0 Bft) 97,87 %
21.05.2022 22:42 15,9 C 13,9 C 10,6 C 78 % 1020,3 hPa 0,0 l/m 0 min 0 min 0 W/m 0,0 km/h (0 Bft) 97,87 %
21.05.2022 22:44 15,9 C 13,9 C 10,6 C 78 % 1020,4 hPa 0,0 l/m 0 min 0 min 0 W/m 0,0 km/h (0 Bft) 97,87 %
21.05.2022 22:46 15,8 C 13,9 C 10,6 C 78 % 1020,3 hPa 0,0 l/m 0 min 0 min 0 W/m 0,0 km/h (0 Bft) 97,87 %
21.05.2022 22:48 15,8 C 13,9 C 10,6 C 78 % 1020,3 hPa 0,0 l/m 0 min 0 min 0 W/m 0,0 km/h (0 Bft) 97,87 %
21.05.2022 22:50 15,7 C 13,9 C 10,6 C 79 % 1020,3 hPa 0,0 l/m 0 min 0 min 0 W/m 0,0 km/h (0 Bft) 95,65 %
21.05.2022 22:52 15,7 C 13,9 C 10,6 C 79 % 1020,3 hPa 0,0 l/m 0 min 0 min 0 W/m 0,0 km/h (0 Bft) 97,87 %
21.05.2022 22:54 15,7 C 13,9 C 10,6 C 79 % 1020,3 hPa 0,0 l/m 0 min 0 min 0 W/m 0,0 km/h (0 Bft) 100,00 %
21.05.2022 22:56 15,6 C 13,9 C 10,6 C 79 % 1020,2 hPa 0,0 l/m 0 min 0 min 0 W/m 0,0 km/h (0 Bft) 100,00 %
21.05.2022 22:58 15,6 C 13,9 C 10,6 C 80 % 1020,3 hPa 0,0 l/m 0 min 0 min 0 W/m 0,0 km/h (0 Bft) 100,00 %
21.05.2022 23:00 15,6 C 13,9 C 10,6 C 80 % 1020,2 hPa 0,0 l/m 0 min 0 min 0 W/m 0,0 km/h (0 Bft) 100,00 %
21.05.2022 23:02 15,5 C 13,9 C 10,6 C 80 % 1020,2 hPa 0,0 l/m 0 min 0 min 0 W/m 0,0 km/h (0 Bft) 100,00 %
21.05.2022 23:04 15,4 C 13,9 C 10,0 C 80 % 1020,2 hPa 0,0 l/m 0 min 0 min 0 W/m 0,0 km/h (0 Bft) 100,00 %
21.05.2022 23:06 15,4 C 13,9 C 10,0 C 81 % 1020,2 hPa 0,0 l/m 0 min 0 min 0 W/m 0,0 km/h (0 Bft) 97,87 %
21.05.2022 23:08 15,3 C 13,9 C 10,0 C 81 % 1020,2 hPa 0,0 l/m 0 min 0 min 0 W/m 0,0 km/h (0 Bft) 100,00 %
21.05.2022 23:10 15,3 C 13,3 C 10,0 C 81 % 1020,2 hPa 0,0 l/m 0 min 0 min 0 W/m 0,0 km/h (0 Bft) 97,87 %
21.05.2022 23:12 15,3 C 13,3 C 10,0 C 81 % 1020,3 hPa 0,0 l/m 0 min 0 min 0 W/m 0,0 km/h (0 Bft) 100,00 %
21.05.2022 23:14 15,2 C 13,3 C 10,0 C 81 % 1020,3 hPa 0,0 l/m 0 min 0 min 0 W/m 0,0 km/h (0 Bft) 100,00 %
21.05.2022 23:16 15,2 C 13,3 C 10,0 C 81 % 1020,2 hPa 0,0 l/m 0 min 0 min 0 W/m 0,0 km/h (0 Bft) 100,00 %
21.05.2022 23:18 15,1 C 13,3 C 10,0 C 81 % 1020,3 hPa 0,0 l/m 0 min 0 min 0 W/m 0,0 km/h (0 Bft) 100,00 %
21.05.2022 23:20 15,1 C 13,3 C 10,0 C 81 % 1020,2 hPa 0,0 l/m 0 min 0 min 0 W/m 0,0 km/h (0 Bft) 100,00 %
21.05.2022 23:22 15,1 C 13,3 C 10,0 C 82 % 1020,3 hPa 0,0 l/m 0 min 0 min 0 W/m 0,0 km/h (0 Bft) 100,00 %
21.05.2022 23:24 15,0 C 13,3 C 10,0 C 82 % 1020,3 hPa 0,0 l/m 0 min 0 min 0 W/m 0,0 km/h (0 Bft) 97,87 %
21.05.2022 23:26 14,9 C 13,3 C 10,0 C 82 % 1020,3 hPa 0,0 l/m 0 min 0 min 0 W/m 0,0 km/h (0 Bft) 95,65 %
21.05.2022 23:28 14,9 C 13,3 C 10,0 C 82 % 1020,3 hPa 0,0 l/m 0 min 0 min 0 W/m 0,0 km/h (0 Bft) 97,87 %
21.05.2022 23:30 14,9 C 13,3 C 10,0 C 83 % 1020,3 hPa 0,0 l/m 0 min 0 min 0 W/m 0,0 km/h (0 Bft) 100,00 %
21.05.2022 23:32 14,8 C 12,8 C 10,0 C 83 % 1020,3 hPa 0,0 l/m 0 min 0 min 0 W/m 0,0 km/h (0 Bft) 100,00 %
21.05.2022 23:34 14,8 C 12,8 C 9,4 C 83 % 1020,2 hPa 0,0 l/m 0 min 0 min 0 W/m 0,0 km/h (0 Bft) 100,00 %
21.05.2022 23:36 14,7 C 12,8 C 9,4 C 83 % 1020,2 hPa 0,0 l/m 0 min 0 min 0 W/m 0,0 km/h (0 Bft) 97,87 %
21.05.2022 23:38 14,7 C 12,8 C 9,4 C 83 % 1020,2 hPa 0,0 l/m 0 min 0 min 0 W/m 0,0 km/h (0 Bft) 97,83 %
21.05.2022 23:40 14,6 C 12,8 C 9,4 C 83 % 1020,1 hPa 0,0 l/m 0 min 0 min 0 W/m 0,0 km/h (0 Bft) 97,87 %
21.05.2022 23:42 14,6 C 12,8 C 9,4 C 84 % 1020,1 hPa 0,0 l/m 0 min 0 min 0 W/m 0,0 km/h (0 Bft) 97,87 %
21.05.2022 23:44 14,6 C 12,8 C 9,4 C 84 % 1020,1 hPa 0,0 l/m 0 min 0 min 0 W/m 0,0 km/h (0 Bft) 97,87 %
21.05.2022 23:46 14,5 C 12,8 C 9,4 C 84 % 1020,0 hPa 0,0 l/m 0 min 0 min 0 W/m 0,0 km/h (0 Bft) 97,87 %
21.05.2022 23:48 14,4 C 12,8 C 9,4 C 84 % 1020,0 hPa 0,0 l/m 0 min 0 min 0 W/m 0,0 km/h (0 Bft) 97,87 %
21.05.2022 23:50 14,3 C 12,8 C 9,4 C 84 % 1019,9 hPa 0,0 l/m 0 min 0 min 0 W/m 0,0 km/h (0 Bft) 97,83 %
21.05.2022 23:52 14,3 C 12,8 C 9,4 C 84 % 1019,9 hPa 0,0 l/m 0 min 0 min 0 W/m 0,0 km/h (0 Bft) 97,87 %
21.05.2022 23:54 14,3 C 12,8 C 9,4 C 84 % 1020,0 hPa 0,0 l/m 0 min 0 min 0 W/m 0,0 km/h (0 Bft) 97,87 %
21.05.2022 23:56 14,3 C 12,8 C 9,4 C 84 % 1020,0 hPa 0,0 l/m 0 min 0 min 0 W/m 0,0 km/h (0 Bft) 97,87 %
21.05.2022 23:58 14,3 C 12,8 C 9,4 C 84 % 1019,9 hPa 0,0 l/m 0 min 0 min 0 W/m 0,0 km/h (0 Bft) 97,87 %
_ Min-Zeit 04:14 01:40 01:56 17:32 19:44 - - - - 19:48 00:02
Minimum _ 11,7 C 11,1 C 8,3 C 59 % 1019,9 hPa - - - - 0,0 km/h (0 Bft) 9,52 %
_ Max-Zeit 17:26 17:22 12:20 02:52 11:10 00:00 18:08 00:00 13:56 12:04 00:00
Maximum _ 20,4 C 23,9 C 21,7 C 91 % 1022,5 hPa 0,0 l/m 4 min 0 min 1172 W/m 32,2 km/h
SO (5 Bft)
100,00 %
Durchschnitt _ 15,7 C 15,5 C 12,2 C 78 % 1021,0 hPa #0,0 l/m #5:40 h #0 min. 277 W/m 9,4 km/h (2 Bft) 97,43 %
© 2022 W. Hausmann